M I D A S
Marine Information and Data Acquisition System
Tripno 1960 of the Zeeleeuw from 2010-09-13 06:19:30 to 2010-09-13 13:52:00
Back to CruiseResearch ActivitiesStationsMapUnderway DataData graphs

EquipmentUnitsComment
TimeDGPSUTC
LatitudeDGPSDM.mWGS84
LongitudeDGPSDM.mWGS84
TemperatureSBE03/SBE38deg celciusITS90
ConductivitySBE21S/mITS90
SalinitySBE21 Practical Salinity Units
ChlorophylAChelsea fluorimeterg/lCalibrated in Aceton
Missing or incorrect values are displayed as -999
Sea surface data collected by the RV Zeeleeuw from 2010-09-13 05:56:46 to 2010-09-13 13:56:12
                                                                                    Next 1000 lines
Time Latitude Longitude Temperature Conductivity Salinity ChlorophylA
2010-09-13 05:56:56 51°13.661 2°55.961 19.2168 2.473215 15.796457 -0.861272
2010-09-13 05:57:01 51°13.661 2°55.961 19.217 2.473215 15.7967 -0.896096
2010-09-13 05:57:06 51°13.661 2°55.961 19.2186 2.472899 15.794492 -0.896096
2010-09-13 05:57:11 51°13.661 2°55.961 19.219 2.473004 15.795713 -0.896096
2010-09-13 05:57:16 51°13.662 2°55.962 19.2191 2.473004 15.795713 -0.896096
2010-09-13 05:57:21 51°13.662 2°55.961 19.2167 2.473004 15.795713 -0.861272
2010-09-13 05:57:26 51°13.662 2°55.961 19.2172 2.47311 15.796449 -0.896096
2010-09-13 05:57:31 51°13.662 2°55.961 19.2173 2.472899 15.795463 -0.861272
2010-09-13 05:57:36 51°13.662 2°55.961 19.2155 2.472899 15.795463 -0.896096
2010-09-13 05:57:41 51°13.662 2°55.96 19.218 2.47311 15.797178 -0.896096
2010-09-13 05:57:46 51°13.662 2°55.96 19.2175 2.47311 15.797178 -0.896096
2010-09-13 05:57:51 51°13.662 2°55.96 19.219 2.472794 15.79497 -0.896096
2010-09-13 05:57:56 51°13.662 2°55.96 19.2208 2.473004 15.796442 -0.861272
2010-09-13 05:58:01 51°13.663 2°55.96 19.2201 2.472899 15.795948 -0.896096
2010-09-13 05:58:06 51°13.663 2°55.961 19.2201 2.472794 15.795698 -0.861272
2010-09-13 05:58:11 51°13.663 2°55.961 19.2187 2.472794 15.795455 -0.896096
2010-09-13 05:58:16 51°13.663 2°55.961 19.2182 2.472794 15.795455 -0.896096
2010-09-13 05:58:21 51°13.663 2°55.96 19.2186 2.473004 15.797413 -0.896096
2010-09-13 05:58:26 51°13.663 2°55.96 19.2209 2.472583 15.794469 -0.896096
2010-09-13 05:58:31 51°13.663 2°55.96 19.2204 2.472899 15.796919 -0.896096
2010-09-13 05:58:36 51°13.663 2°55.96 19.2209 2.472689 15.79569 -0.896096
2010-09-13 05:58:41 51°13.663 2°55.96 19.2195 2.472794 15.796426 -0.896096
2010-09-13 05:58:46 51°13.663 2°55.96 19.2204 2.472794 15.796426 -0.896096
2010-09-13 05:58:51 51°13.663 2°55.96 19.2223 2.472899 15.797162 -0.896096
2010-09-13 05:58:56 51°13.663 2°55.96 19.2237 2.472689 15.796176 -0.896096
2010-09-13 05:59:01 51°13.663 2°55.96 19.2223 2.472794 15.797155 -0.861272
2010-09-13 05:59:06 51°13.664 2°55.961 19.2209 2.472689 15.796176 -0.896096
2010-09-13 05:59:11 51°13.663 2°55.961 19.2206 2.472794 15.797397 -0.896096
2010-09-13 05:59:16 51°13.663 2°55.96 19.2239 2.472794 15.797397 -0.896096
2010-09-13 05:59:21 51°13.663 2°55.96 19.2236 2.472794 15.797397 -0.896096
2010-09-13 05:59:25 51°13.663 2°55.96 19.2255 2.472584 15.796168 -0.896096
2010-09-13 05:59:30 51°13.663 2°55.96 19.2253 2.472584 15.796654 -0.861272
2010-09-13 05:59:35 51°13.663 2°55.961 19.2241 2.472794 15.798126 -0.861272
2010-09-13 05:59:41 51°13.662 2°55.96 19.2229 2.472689 15.79739 -0.896096
2010-09-13 05:59:45 51°13.663 2°55.96 19.2227 2.472689 15.79739 -0.896096
2010-09-13 05:59:51 51°13.663 2°55.961 19.2218 2.472478 15.796161 -0.861272
2010-09-13 05:59:55 51°13.663 2°55.961 19.2222 2.472478 15.795918 -0.861272
2010-09-13 06:00:01 51°13.663 2°55.961 19.2236 2.472373 15.795667 -0.896096
2010-09-13 06:00:05 51°13.663 2°55.961 19.2232 2.472584 15.79714 -0.861272
2010-09-13 06:00:11 51°13.663 2°55.96 19.224 2.472689 15.798361 -0.896096
2010-09-13 06:00:16 51°13.663 2°55.961 19.2238 2.472689 15.798361 -0.896096
2010-09-13 06:00:21 51°13.663 2°55.961 19.2241 2.472268 15.795174 -0.861272
2010-09-13 06:00:26 51°13.663 2°55.96 19.225 2.472584 15.797625 -0.896096
2010-09-13 06:00:31 51°13.663 2°55.96 19.2246 2.472268 15.79566 -0.896096
2010-09-13 06:00:36 51°13.663 2°55.961 19.2223 2.472268 15.79566 -0.896096
2010-09-13 06:00:41 51°13.663 2°55.961 19.2267 2.472478 15.797618 -0.861272
2010-09-13 06:00:46 51°13.663 2°55.961 19.2291 2.472478 15.797618 -0.861272
2010-09-13 06:00:51 51°13.663 2°55.96 19.2295 2.472373 15.796882 -0.861272
2010-09-13 06:00:56 51°13.663 2°55.96 19.2291 2.472268 15.796388 -0.896096
2010-09-13 06:01:01 51°13.663 2°55.96 19.2285 2.472373 15.797124 -0.861272
2010-09-13 06:01:06 51°13.663 2°55.96 19.2276 2.472163 15.795895 -0.861272
2010-09-13 06:01:11 51°13.663 2°55.961 19.2278 2.472478 15.798346 -0.896096
2010-09-13 06:01:16 51°13.663 2°55.96 19.2281 2.472478 15.798346 -0.896096
2010-09-13 06:01:21 51°13.663 2°55.961 19.227 2.472268 15.796874 -0.896096
2010-09-13 06:01:26 51°13.663 2°55.961 19.2269 2.472163 15.796138 -0.861272
2010-09-13 06:01:31 51°13.663 2°55.96 19.226 2.472163 15.796624 -0.896096
2010-09-13 06:01:36 51°13.663 2°55.96 19.2275 2.472478 15.799075 -0.896096
2010-09-13 06:01:41 51°13.663 2°55.961 19.2293 2.472057 15.79613 -0.93092
2010-09-13 06:01:46 51°13.663 2°55.961 19.2282 2.472057 15.79613 -0.93092
2010-09-13 06:01:51 51°13.663 2°55.96 19.2249 2.472057 15.796373 -0.861272
2010-09-13 06:01:56 51°13.663 2°55.96 19.224 2.471847 15.794901 -0.896096
2010-09-13 06:02:01 51°13.663 2°55.961 19.2263 2.472268 15.798088 -0.896096
2010-09-13 06:02:06 51°13.663 2°55.96 19.2288 2.472163 15.797352 -0.861272
2010-09-13 06:02:11 51°13.663 2°55.96 19.2303 2.472057 15.796859 -0.861272
2010-09-13 06:02:16 51°13.663 2°55.96 19.2321 2.472057 15.796859 -0.861272
2010-09-13 06:02:21 51°13.663 2°55.961 19.2275 2.471637 15.794157 -0.861272
2010-09-13 06:02:26 51°13.663 2°55.961 19.2236 2.472373 15.799553 -0.896096
2010-09-13 06:02:31 51°13.663 2°55.96 19.2274 2.471952 15.796851 -0.896096
2010-09-13 06:02:36 51°13.663 2°55.96 19.2275 2.471531 15.793663 -0.861272
2010-09-13 06:02:41 51°13.663 2°55.961 19.2289 2.472058 15.797588 -0.861272
2010-09-13 06:02:46 51°13.663 2°55.961 19.2267 2.472058 15.797588 -0.861272
2010-09-13 06:02:51 51°13.663 2°55.961 19.2296 2.472163 15.798567 -0.896096
2010-09-13 06:02:56 51°13.663 2°55.961 19.2254 2.471531 15.793906 -0.93092
2010-09-13 06:03:00 51°13.662 2°55.961 19.2237 2.471847 15.796601 -0.896096
2010-09-13 06:03:05 51°13.662 2°55.961 19.2218 2.472058 15.798073 -0.896096
2010-09-13 06:03:10 51°13.662 2°55.961 19.2204 2.471952 15.79758 -0.896096
2010-09-13 06:03:16 51°13.663 2°55.961 19.2198 2.471952 15.79758 -0.896096
2010-09-13 06:03:20 51°13.662 2°55.961 19.2226 2.471742 15.796108 -0.861272
2010-09-13 06:03:25 51°13.662 2°55.961 19.2272 2.471742 15.796593 -0.861272
2010-09-13 06:03:30 51°13.662 2°55.961 19.2291 2.471952 15.798309 -0.93092
2010-09-13 06:03:35 51°13.662 2°55.961 19.2258 2.471426 15.794627 -0.896096
2010-09-13 06:03:40 51°13.662 2°55.961 19.2257 2.471742 15.796836 -0.861272
2010-09-13 06:03:44 51°13.662 2°55.961 19.2242 2.471742 15.796836 -0.861272
2010-09-13 06:03:49 51°13.662 2°55.961 19.2293 2.472058 15.799288 -0.861272
2010-09-13 06:03:54 51°13.663 2°55.962 19.2306 2.471742 15.797565 -0.896096
2010-09-13 06:03:59 51°13.663 2°55.962 19.2281 2.471742 15.797322 -0.896096
2010-09-13 06:04:04 51°13.662 2°55.961 19.2272 2.471531 15.79585 -0.861272
2010-09-13 06:04:08 51°13.662 2°55.961 19.2288 2.471952 15.799281 -0.861272
2010-09-13 06:04:13 51°13.662 2°55.961 19.2286 2.471952 15.799281 -0.861272
2010-09-13 06:04:18 51°13.662 2°55.961 19.2236 2.471531 15.796092 -0.861272
2010-09-13 06:04:23 51°13.662 2°55.961 19.2234 2.471742 15.798051 -0.896096
2010-09-13 06:04:28 51°13.662 2°55.96 19.2239 2.471426 15.795842 -0.896096
2010-09-13 06:04:33 51°13.662 2°55.961 19.2243 2.471637 15.797558 -0.896096
2010-09-13 06:04:37 51°13.662 2°55.961 19.2292 2.471742 15.798537 -0.861272
2010-09-13 06:04:43 51°13.662 2°55.961 19.2281 2.471742 15.798537 -0.861272
2010-09-13 06:04:48 51°13.662 2°55.961 19.2267 2.471321 15.795349 -0.826448
2010-09-13 06:04:52 51°13.662 2°55.962 19.2234 2.471637 15.798044 -0.896096
2010-09-13 06:04:57 51°13.662 2°55.961 19.223 2.471321 15.795592 -0.896096
2010-09-13 06:05:02 51°13.662 2°55.961 19.2243 2.471426 15.796571 -0.896096
2010-09-13 06:05:07 51°13.662 2°55.961 19.2231 2.471637 15.798287 -0.861272
2010-09-13 06:05:12 51°13.662 2°55.961 19.2247 2.471637 15.798287 -0.861272
2010-09-13 06:05:17 51°13.662 2°55.961 19.2269 2.471216 15.795341 -0.861272
2010-09-13 06:05:22 51°13.663 2°55.961 19.2278 2.471637 15.79853 -0.861272
2010-09-13 06:05:27 51°13.662 2°55.961 19.2295 2.471637 15.799016 -0.896096
2010-09-13 06:05:32 51°13.663 2°55.961 19.2323 2.471531 15.798279 -0.861272
2010-09-13 06:05:37 51°13.663 2°55.961 19.2325 2.471321 15.796563 -0.861272
2010-09-13 06:05:42 51°13.663 2°55.961 19.2313 2.471321 15.796563 -0.861272
2010-09-13 06:05:47 51°13.663 2°55.961 19.2269 2.471321 15.796563 -0.861272
2010-09-13 06:05:52 51°13.663 2°55.961 19.2271 2.471321 15.796806 -0.896096
2010-09-13 06:05:57 51°13.663 2°55.961 19.2288 2.471321 15.797049 -0.896096
2010-09-13 06:06:02 51°13.663 2°55.961 19.2281 2.471531 15.798522 -0.896096
2010-09-13 06:06:07 51°13.662 2°55.961 19.2278 2.471216 15.796556 -0.896096
2010-09-13 06:06:12 51°13.662 2°55.961 19.2267 2.471216 15.796556 -0.896096
2010-09-13 06:06:17 51°13.662 2°55.961 19.227 2.471216 15.796799 -0.861272
2010-09-13 06:06:22 51°13.662 2°55.961 19.229 2.471426 15.798272 -0.861272
2010-09-13 06:06:27 51°13.662 2°55.961 19.2289 2.471216 15.796799 -0.896096
2010-09-13 06:06:32 51°13.662 2°55.961 19.2293 2.471111 15.796305 -0.93092
2010-09-13 06:06:37 51°13.662 2°55.961 19.2281 2.471216 15.797042 -0.896096
2010-09-13 06:06:42 51°13.662 2°55.961 19.2283 2.471216 15.797042 -0.896096
2010-09-13 06:06:48 51°13.662 2°55.961 19.2215 2.471321 15.798021 -0.861272
2010-09-13 06:06:52 51°13.662 2°55.961 19.2196 2.471321 15.798265 -0.896096
2010-09-13 06:06:57 51°13.662 2°55.962 19.2184 2.47069 15.793846 -0.896096
2010-09-13 06:07:02 51°13.662 2°55.961 19.2268 2.471321 15.798265 -0.896096
2010-09-13 06:07:07 51°13.662 2°55.961 19.223 2.471111 15.797035 -0.896096
2010-09-13 06:07:12 51°13.662 2°55.961 19.2232 2.471111 15.797035 -0.896096
2010-09-13 06:07:17 51°13.662 2°55.961 19.2264 2.470795 15.795068 -0.861272
2010-09-13 06:07:22 51°13.662 2°55.961 19.2277 2.471426 15.799487 -0.861272
2010-09-13 06:07:27 51°13.662 2°55.961 19.2271 2.470795 15.795068 -0.896096
2010-09-13 06:07:32 51°13.662 2°55.962 19.2298 2.471216 15.7985 -0.861272
2010-09-13 06:07:37 51°13.662 2°55.961 19.2317 2.47069 15.794575 -0.896096
2010-09-13 06:07:42 51°13.662 2°55.961 19.2334 2.47069 15.794575 -0.896096
2010-09-13 06:07:47 51°13.662 2°55.962 19.2308 2.471216 15.7985 -0.861272
2010-09-13 06:07:52 51°13.662 2°55.962 19.2283 2.4709 15.796291 -0.896096
2010-09-13 06:07:57 51°13.662 2°55.962 19.2306 2.471111 15.798007 -0.896096
2010-09-13 06:08:03 51°13.662 2°55.961 19.2311 2.47069 15.794818 -0.896096
2010-09-13 06:08:07 51°13.662 2°55.961 19.2322 2.471111 15.79825 -0.861272
2010-09-13 06:08:12 51°13.662 2°55.961 19.2303 2.471111 15.79825 -0.861272
2010-09-13 06:08:17 51°13.662 2°55.961 19.2285 2.470795 15.79604 -0.861272
2010-09-13 06:08:22 51°13.662 2°55.961 19.2263 2.4709 15.79702 -0.896096
2010-09-13 06:08:27 51°13.662 2°55.961 19.2256 2.470795 15.796283 -0.861272
2010-09-13 06:08:32 51°13.663 2°55.961 19.226 2.471111 15.798979 -0.896096
2010-09-13 06:08:37 51°13.663 2°55.961 19.2265 2.4709 15.797506 -0.861272
2010-09-13 06:08:43 51°13.663 2°55.96 19.2281 2.4709 15.797506 -0.861272
2010-09-13 06:08:47 51°13.663 2°55.96 19.2275 2.4709 15.797263 -0.861272
2010-09-13 06:08:52 51°13.663 2°55.961 19.2285 2.471005 15.798242 -0.896096
2010-09-13 06:08:57 51°13.663 2°55.961 19.2295 2.47069 15.796033 -0.896096
2010-09-13 06:09:02 51°13.662 2°55.961 19.2296 2.471005 15.798242 -0.896096
2010-09-13 06:09:07 51°13.662 2°55.961 19.2277 2.47069 15.796276 -0.861272
2010-09-13 06:09:12 51°13.661 2°55.962 19.2262 2.47069 15.796276 -0.861272
2010-09-13 06:09:17 51°13.661 2°55.962 19.226 2.4709 15.797749 -0.826448
2010-09-13 06:09:22 51°13.661 2°55.962 19.2265 2.470585 15.795539 -0.861272
2010-09-13 06:09:27 51°13.661 2°55.961 19.2291 2.471426 15.801918 -0.896096
2010-09-13 06:09:32 51°13.661 2°55.961 19.229 2.470479 15.795532 -0.896096
2010-09-13 06:09:37 51°13.661 2°55.961 19.2313 2.470585 15.796755 -0.896096
2010-09-13 06:09:42 51°13.661 2°55.962 19.2265 2.470585 15.796755 -0.896096
2010-09-13 06:09:48 51°13.661 2°55.962 19.2295 2.4709 15.799208 -0.861272
2010-09-13 06:09:52 51°13.661 2°55.962 19.2334 2.470795 15.798471 -0.861272
2010-09-13 06:09:57 51°13.661 2°55.962 19.2354 2.4709 15.798964 -0.861272
2010-09-13 06:10:02 51°13.662 2°55.962 19.2352 2.470795 15.797742 -0.896096
2010-09-13 06:10:07 51°13.662 2°55.961 19.2362 2.470585 15.796268 -0.93092
2010-09-13 06:10:12 51°13.662 2°55.961 19.2347 2.470585 15.796268 -0.93092
2010-09-13 06:10:17 51°13.662 2°55.961 19.2334 2.47069 15.797005 -0.861272
2010-09-13 06:10:22 51°13.662 2°55.961 19.2313 2.4709 15.798964 -0.896096
2010-09-13 06:10:27 51°13.662 2°55.961 19.2331 2.470374 15.795524 -0.861272
2010-09-13 06:10:32 51°13.662 2°55.961 19.2349 2.470795 15.798957 -0.896096
2010-09-13 06:10:37 51°13.662 2°55.961 19.2355 2.47069 15.798464 -0.896096
2010-09-13 06:10:42 51°13.662 2°55.962 19.2336 2.47069 15.798464 -0.896096
2010-09-13 06:10:47 51°13.661 2°55.962 19.2318 2.470585 15.797727 -0.896096
2010-09-13 06:10:52 51°13.661 2°55.962 19.2337 2.470585 15.79797 -0.896096
2010-09-13 06:10:57 51°13.661 2°55.962 19.2328 2.470479 15.79699 -0.896096
2010-09-13 06:11:02 51°13.661 2°55.962 19.2316 2.470795 15.799444 -0.93092
2010-09-13 06:11:07 51°13.661 2°55.962 19.2322 2.470585 15.797727 -0.896096
2010-09-13 06:11:12 51°13.661 2°55.963 19.2341 2.470585 15.797727 -0.896096
2010-09-13 06:11:17 51°13.661 2°55.963 19.235 2.470585 15.79797 -0.896096
2010-09-13 06:11:22 51°13.661 2°55.963 19.2371 2.470479 15.797233 -0.861272
2010-09-13 06:11:27 51°13.661 2°55.962 19.2389 2.470374 15.796497 -0.93092
2010-09-13 06:11:32 51°13.661 2°55.962 19.2374 2.470585 15.798456 -0.896096
2010-09-13 06:11:37 51°13.661 2°55.962 19.2364 2.47069 15.799436 -0.896096
2010-09-13 06:11:42 51°13.661 2°55.962 19.235 2.47069 15.799436 -0.896096
2010-09-13 06:11:48 51°13.661 2°55.962 19.2356 2.47069 15.799436 -0.861272
2010-09-13 06:11:52 51°13.661 2°55.962 19.2357 2.470269 15.796489 -0.896096
2010-09-13 06:11:57 51°13.659 2°55.962 19.2358 2.470585 15.799429 -0.861272
2010-09-13 06:12:02 51°13.66 2°55.963 19.2336 2.470585 15.799186 -0.861272
2010-09-13 06:12:07 51°13.66 2°55.963 19.2336 2.470585 15.799429 -0.896096
2010-09-13 06:12:12 51°13.661 2°55.963 19.234 2.470585 15.799429 -0.896096
2010-09-13 06:12:17 51°13.661 2°55.963 19.2413 2.47069 15.800409 -0.896096
2010-09-13 06:12:22 51°13.661 2°55.963 19.2342 2.470164 15.796482 -0.896096
2010-09-13 06:12:27 51°13.661 2°55.962 19.2418 2.47069 15.800652 -0.861272
2010-09-13 06:12:32 51°13.661 2°55.962 19.2413 2.470269 15.797462 -0.896096
2010-09-13 06:12:37 51°13.661 2°55.963 19.2393 2.470795 15.801389 -0.861272
2010-09-13 06:12:42 51°13.661 2°55.963 19.2396 2.470795 15.801389 -0.861272
2010-09-13 06:12:47 51°13.661 2°55.962 19.2415 2.470374 15.798442 -0.896096
2010-09-13 06:12:52 51°13.661 2°55.962 19.2421 2.470479 15.799422 -0.896096
2010-09-13 06:12:57 51°13.661 2°55.962 19.2404 2.470374 15.799171 -0.861272
2010-09-13 06:13:02 51°13.661 2°55.962 19.2398 2.470585 15.800888 -0.861272
2010-09-13 06:13:07 51°13.661 2°55.962 19.2408 2.470585 15.800888 -0.861272
2010-09-13 06:13:12 51°13.661 2°55.962 19.2412 2.470585 15.800888 -0.861272
2010-09-13 06:13:17 51°13.661 2°55.962 19.2392 2.4709 15.803342 -0.861272
2010-09-13 06:13:23 51°13.66 2°55.962 19.2333 2.470479 15.800151 -0.896096
2010-09-13 06:13:28 51°13.66 2°55.962 19.2281 2.470479 15.800395 -0.861272
2010-09-13 06:13:32 51°13.659 2°55.962 19.2156 2.470059 15.797447 -0.896096
2010-09-13 06:13:37 51°13.659 2°55.961 19.2088 2.470164 15.798184 -0.896096
2010-09-13 06:13:42 51°13.66 2°55.96 19.2044 2.470164 15.798184 -0.896096
2010-09-13 06:13:47 51°13.66 2°55.958 19.1546 2.469848 15.79573 -0.861272
2010-09-13 06:13:52 51°13.661 2°55.956 19.2201 2.469427 15.792783 -0.896096
2010-09-13 06:13:57 51°13.662 2°55.951 19.2262 2.469743 15.794994 -0.861272
2010-09-13 06:14:02 51°13.663 2°55.947 19.2279 2.469427 15.793513 -0.861272
2010-09-13 06:14:08 51°13.665 2°55.94 19.2307 2.471006 15.805296 -0.861272
2010-09-13 06:14:13 51°13.666 2°55.933 19.2229 2.471006 15.805296 -0.861272
2010-09-13 06:14:19 51°13.668 2°55.924 19.2232 2.4709 15.804802 -0.896096
2010-09-13 06:14:24 51°13.671 2°55.916 19.2214 2.470585 15.803321 -0.896096
2010-09-13 06:14:30 51°13.673 2°55.905 19.2374 2.470269 15.800624 -0.896096
2010-09-13 06:14:36 51°13.676 2°55.893 19.2331 2.471742 15.811671 -0.896096
2010-09-13 06:14:41 51°13.678 2°55.884 19.2433 2.470795 15.805282 -0.861272
2010-09-13 06:14:46 51°13.681 2°55.875 19.2375 2.470795 15.805282 -0.861272
2010-09-13 06:14:51 51°13.683 2°55.865 19.2447 2.471637 15.811665 -0.861272
2010-09-13 06:14:56 51°13.686 2°55.856 19.2414 2.47069 15.805031 -0.896096
2010-09-13 06:15:01 51°13.688 2°55.847 19.2424 2.471532 15.811171 -0.896096
2010-09-13 06:15:05 51°13.69 2°55.839 19.2388 2.471216 15.809203 -0.896096
2010-09-13 06:15:10 51°13.692 2°55.831 19.2312 2.471006 15.807973 -0.896096
2010-09-13 06:15:15 51°13.694 2°55.822 19.211 2.471006 15.807973 -0.896096
2010-09-13 06:15:20 51°13.696 2°55.814 19.2269 2.470795 15.806255 -0.896096
2010-09-13 06:15:25 51°13.698 2°55.806 19.2278 2.471111 15.808466 -0.861272
2010-09-13 06:15:31 51°13.699 2°55.796 19.2355 2.470795 15.806742 -0.896096
2010-09-13 06:15:36 51°13.701 2°55.788 19.2358 2.471006 15.808216 -0.896096
2010-09-13 06:15:40 51°13.702 2°55.782 19.2372 2.471006 15.80846 -0.861272
2010-09-13 06:15:46 51°13.703 2°55.774 19.2404 2.471006 15.80846 -0.861272
2010-09-13 06:15:51 51°13.704 2°55.767 19.2389 2.470585 15.805755 -0.861272
2010-09-13 06:15:56 51°13.704 2°55.76 19.2381 2.4709 15.807723 -0.896096
2010-09-13 06:16:00 51°13.705 2°55.756 19.2379 2.471111 15.80944 -0.896096
2010-09-13 06:16:05 51°13.705 2°55.751 19.2388 2.4709 15.807966 -0.896096
2010-09-13 06:16:10 51°13.705 2°55.746 19.2499 2.470164 15.802563 -0.896096
2010-09-13 06:16:15 51°13.706 2°55.744 19.2534 2.470164 15.802563 -0.896096
2010-09-13 06:16:20 51°13.706 2°55.742 19.2444 2.471847 15.815331 -0.861272
2010-09-13 06:16:24 51°13.706 2°55.742 19.2419 2.47069 15.807466 -0.861272
2010-09-13 06:16:29 51°13.706 2°55.742 19.2471 2.471637 15.814343 -0.896096
2010-09-13 06:16:35 51°13.707 2°55.743 19.2466 2.471427 15.8136 -0.861272
2010-09-13 06:16:40 51°13.707 2°55.744 19.2303 2.471953 15.817286 -0.896096
2010-09-13 06:16:44 51°13.708 2°55.745 19.2261 2.471953 15.817286 -0.896096
2010-09-13 06:16:49 51°13.708 2°55.746 19.1817 2.470795 15.809177 -0.896096
2010-09-13 06:16:54 51°13.709 2°55.747 19.2107 2.469743 15.800832 -0.861272
2010-09-13 06:16:59 51°13.708 2°55.746 19.2159 2.469427 15.797647 -0.861272
2010-09-13 06:17:04 51°13.707 2°55.745 19.2354 2.469217 15.796173 -0.896096
2010-09-13 06:17:08 51°13.706 2°55.744 19.211 2.46827 15.789297 -0.861272
2010-09-13 06:17:13 51°13.705 2°55.741 19.2278 2.46827 15.789297 -0.861272
2010-09-13 06:17:18 51°13.702 2°55.739 19.2241 2.470269 15.804517 -0.93092
2010-09-13 06:17:23 51°13.7 2°55.735 19.2375 2.471427 15.813356 -0.896096
2010-09-13 06:17:28 51°13.698 2°55.733 19.2349 2.470059 15.803773 -0.861272
2010-09-13 06:17:34 51°13.695 2°55.73 19.2389 2.471006 15.811138 -0.861272
2010-09-13 06:17:40 51°13.694 2°55.728 19.2449 2.471637 15.816292 -0.861272
2010-09-13 06:17:46 51°13.694 2°55.728 19.2492 2.471637 15.816292 -0.861272
2010-09-13 06:17:51 51°13.694 2°55.728 19.2453 2.472584 15.823903 -0.896096
2010-09-13 06:17:56 51°13.696 2°55.73 19.2464 2.473216 15.829302 -0.896096
2010-09-13 06:18:00 51°13.697 2°55.73 19.2476 2.472163 15.822172 -0.861272
2010-09-13 06:18:05 51°13.7 2°55.731 19.2527 2.472584 15.825609 -0.861272
2010-09-13 06:18:11 51°13.704 2°55.731 19.2529 2.472689 15.826103 -0.861272
2010-09-13 06:18:16 51°13.708 2°55.731 19.2556 2.472689 15.826103 -0.861272
2010-09-13 06:18:20 51°13.711 2°55.73 19.2562 2.473742 15.834453 -0.896096
2010-09-13 06:18:25 51°13.716 2°55.727 19.2536 2.473321 15.831503 -0.896096
2010-09-13 06:18:30 51°13.721 2°55.724 19.2414 2.472058 15.822654 -0.896096
2010-09-13 06:18:35 51°13.727 2°55.719 19.2198 2.471637 15.818973 -0.896096
2010-09-13 06:18:40 51°13.733 2°55.714 19.1977 2.470164 15.807188 -0.861272
2010-09-13 06:18:44 51°13.739 2°55.71 19.1889 2.470164 15.807188 -0.861272
2010-09-13 06:18:49 51°13.746 2°55.704 19.1869 2.470059 15.805721 -0.861272
2010-09-13 06:18:55 51°13.756 2°55.695 19.1889 2.470059 15.805234 -0.896096
2010-09-13 06:18:59 51°13.763 2°55.689 19.1863 2.469743 15.803509 -0.896096
2010-09-13 06:19:04 51°13.772 2°55.681 19.1819 2.469322 15.80129 -0.896096
2010-09-13 06:19:09 51°13.782 2°55.673 19.1851 2.469322 15.801777 -0.861272
2010-09-13 06:19:14 51°13.792 2°55.664 19.184 2.469322 15.801777 -0.861272
2010-09-13 06:19:19 51°13.802 2°55.655 19.1809 2.46827 15.794648 -0.896096
2010-09-13 06:19:24 51°13.813 2°55.647 19.1788 2.468165 15.793911 -0.861272
2010-09-13 06:19:28 51°13.822 2°55.639 19.1717 2.46827 15.794162 -0.861272
2010-09-13 06:19:33 51°13.834 2°55.63 19.1721 2.467533 15.788028 -0.896096
2010-09-13 06:19:38 51°13.845 2°55.621 19.1676 2.467533 15.787785 -0.896096
2010-09-13 06:19:43 51°13.858 2°55.612 19.1579 2.467533 15.787785 -0.896096
2010-09-13 06:19:48 51°13.87 2°55.603 19.1515 2.467218 15.785331 -0.896096
2010-09-13 06:19:52 51°13.879 2°55.595 19.1774 2.467744 15.789016 -0.896096
2010-09-13 06:19:57 51°13.892 2°55.586 19.1837 2.467849 15.79024 -0.861272
2010-09-13 06:20:02 51°13.905 2°55.576 19.1842 2.467849 15.790726 -0.896096
2010-09-13 06:20:07 51°13.917 2°55.566 19.184 2.468165 15.793424 -0.861272
2010-09-13 06:20:12 51°13.929 2°55.556 19.1554 2.468165 15.793424 -0.861272
2010-09-13 06:20:17 51°13.942 2°55.546 19.1708 2.466692 15.783347 -0.861272
2010-09-13 06:20:22 51°13.954 2°55.537 19.1558 2.467639 15.789738 -0.861272
2010-09-13 06:20:27 51°13.967 2°55.527 19.1737 2.468375 15.795872 -0.896096
2010-09-13 06:20:32 51°13.98 2°55.517 19.1481 2.467007 15.786045 -0.896096
2010-09-13 06:20:37 51°13.992 2°55.508 19.1607 2.467744 15.791205 -0.861272
2010-09-13 06:20:42 51°14.005 2°55.498 19.1809 2.467744 15.791205 -0.861272
2010-09-13 06:20:47 51°14.019 2°55.49 19.1866 2.468165 15.794884 -0.861272
2010-09-13 06:20:52 51°14.031 2°55.481 19.1764 2.467744 15.792179 -0.896096
2010-09-13 06:20:57 51°14.044 2°55.472 19.1829 2.468901 15.800776 -0.896096
2010-09-13 06:21:02 51°14.058 2°55.463 19.1832 2.46848 15.798313 -0.93092
2010-09-13 06:21:07 51°14.07 2°55.454 19.1899 2.46848 15.798313 -0.896096
2010-09-13 06:21:12 51°14.084 2°55.445 19.2019 2.46848 15.798313 -0.896096
2010-09-13 06:21:17 51°14.097 2°55.437 19.203 2.469112 15.803468 -0.896096
2010-09-13 06:21:22 51°14.11 2°55.427 19.2022 2.467639 15.792901 -0.861272
2010-09-13 06:21:27 51°14.123 2°55.418 19.2158 2.469112 15.803711 -0.896096
2010-09-13 06:21:32 51°14.136 2°55.409 19.2141 2.468901 15.80248 -0.861272
2010-09-13 06:21:37 51°14.149 2°55.399 19.2134 2.468375 15.798793 -0.861272
2010-09-13 06:21:42 51°14.162 2°55.39 19.2147 2.468375 15.798793 -0.861272
2010-09-13 06:21:47 51°14.175 2°55.38 19.2151 2.469007 15.803461 -0.861272
2010-09-13 06:21:52 51°14.188 2°55.37 19.212 2.468901 15.802724 -0.861272
2010-09-13 06:21:57 51°14.2 2°55.359 19.2125 2.468586 15.800755 -0.896096
2010-09-13 06:22:02 51°14.212 2°55.349 19.2104 2.468691 15.801736 -0.861272
2010-09-13 06:22:07 51°14.225 2°55.338 19.1969 2.467849 15.795836 -0.896096
2010-09-13 06:22:12 51°14.238 2°55.328 19.2105 2.467849 15.795836 -0.896096
2010-09-13 06:22:16 51°14.248 2°55.319 19.208 2.467849 15.795836 -0.861272
2010-09-13 06:22:22 51°14.263 2°55.307 19.2129 2.46827 15.79903 -0.896096
2010-09-13 06:22:27 51°14.275 2°55.296 19.2186 2.467534 15.793624 -0.896096
2010-09-13 06:22:32 51°14.288 2°55.285 19.2248 2.469638 15.809347 -0.896096
2010-09-13 06:22:37 51°14.3 2°55.274 19.1992 2.468165 15.799266 -0.861272
2010-09-13 06:22:42 51°14.312 2°55.263 19.2099 2.468165 15.799266 -0.861272
2010-09-13 06:22:47 51°14.325 2°55.251 19.2152 2.46827 15.79976 -0.861272
2010-09-13 06:22:52 51°14.337 2°55.24 19.2104 2.468481 15.801478 -0.896096
2010-09-13 06:22:57 51°14.349 2°55.228 19.2031 2.467744 15.79656 -0.861272
2010-09-13 06:23:02 51°14.362 2°55.216 19.2201 2.468796 15.804178 -0.896096
2010-09-13 06:23:08 51°14.376 2°55.202 19.2077 2.46827 15.800247 -0.861272
2010-09-13 06:23:12 51°14.386 2°55.193 19.2005 2.46827 15.800247 -0.861272
2010-09-13 06:23:17 51°14.398 2°55.18 19.1925 2.467428 15.794591 -0.861272
2010-09-13 06:23:22 51°14.41 2°55.168 19.1977 2.467534 15.795328 -0.861272
2010-09-13 06:23:27 51°14.423 2°55.156 19.2049 2.467113 15.791891 -0.896096
2010-09-13 06:23:32 51°14.435 2°55.145 19.2115 2.468691 15.803928 -0.896096
2010-09-13 06:23:37 51°14.447 2°55.133 19.2185 2.468901 15.80589 -0.896096
2010-09-13 06:23:42 51°14.459 2°55.121 19.2068 2.468901 15.80589 -0.896096
2010-09-13 06:23:47 51°14.471 2°55.11 19.2147 2.468375 15.802202 -0.896096
2010-09-13 06:23:52 51°14.483 2°55.099 19.1918 2.466481 15.789414 -0.896096
2010-09-13 06:23:57 51°14.495 2°55.088 19.2225 2.467954 15.800226 -0.861272
2010-09-13 06:24:02 51°14.508 2°55.076 19.2253 2.468901 15.806377 -0.896096
2010-09-13 06:24:07 51°14.52 2°55.065 19.2356 2.468586 15.804408 -0.861272
2010-09-13 06:24:12 51°14.532 2°55.053 19.2432 2.468586 15.804408 -0.861272
2010-09-13 06:24:16 51°14.542 2°55.043 19.2502 2.470585 15.819155 -0.896096
2010-09-13 06:24:22 51°14.556 2°55.026 19.2301 2.469638 15.813491 -0.896096
2010-09-13 06:24:27 51°14.566 2°55.011 19.247 2.469007 15.81004 -0.896096
2010-09-13 06:24:32 51°14.576 2°54.995 19.2267 2.472374 15.835603 -0.896096
2010-09-13 06:24:37 51°14.586 2°54.978 19.2423 2.47027 15.820844 -0.896096
2010-09-13 06:24:42 51°14.595 2°54.959 19.2241 2.47027 15.820844 -0.896096
2010-09-13 06:24:47 51°14.604 2°54.94 19.2371 2.469849 15.819113 -0.861272
2010-09-13 06:24:52 51°14.612 2°54.919 19.224 2.468586 15.809039 -0.861272
2010-09-13 06:24:57 51°14.619 2°54.897 19.2193 2.473005 15.841008 -0.896096
2010-09-13 06:25:02 51°14.626 2°54.874 19.2212 2.470585 15.82257 -0.896096
2010-09-13 06:25:07 51°14.632 2°54.85 19.2022 2.469007 15.810771 -0.896096
2010-09-13 06:25:12 51°14.637 2°54.826 19.2229 2.469007 15.810771 -0.896096
2010-09-13 06:25:17 51°14.641 2°54.801 19.2076 2.470164 15.817911 -0.896096
2010-09-13 06:25:22 51°14.645 2°54.776 19.2112 2.470375 15.820362 -0.896096
2010-09-13 06:25:27 51°14.647 2°54.749 19.2086 2.469322 15.812984 -0.861272
2010-09-13 06:25:32 51°14.648 2°54.722 19.2172 2.468902 15.810521 -0.861272
2010-09-13 06:25:37 51°14.648 2°54.696 19.2084 2.467639 15.801424 -0.896096
2010-09-13 06:25:42 51°14.647 2°54.669 19.1839 2.467639 15.801424 -0.896096
2010-09-13 06:25:47 51°14.644 2°54.642 19.2168 2.471532 15.830431 -0.896096
2010-09-13 06:25:52 51°14.641 2°54.615 19.216 2.467429 15.802629 -0.896096
2010-09-13 06:25:57 51°14.636 2°54.589 19.1678 2.47027 15.82304 -0.896096
2010-09-13 06:26:02 51°14.63 2°54.563 19.1908 2.468165 15.8056 -0.861272
2010-09-13 06:26:07 51°14.624 2°54.537 19.1943 2.46827 15.804145 -0.861272
2010-09-13 06:26:12 51°14.617 2°54.51 19.157 2.46827 15.804145 -0.861272
2010-09-13 06:26:17 51°14.61 2°54.484 19.1801 2.465429 15.783255 -0.861272
2010-09-13 06:26:22 51°14.602 2°54.458 19.1914 2.465324 15.780572 -0.896096
2010-09-13 06:26:27 51°14.594 2°54.432 19.196 2.467428 15.796051 -0.861272
2010-09-13 06:26:32 51°14.584 2°54.408 19.1612 2.466797 15.795035 -0.896096
2010-09-13 06:26:36 51°14.577 2°54.388 19.1897 2.467008 15.800165 -0.896096
2010-09-13 06:26:42 51°14.564 2°54.36 19.1618 2.467008 15.800165 -0.896096
2010-09-13 06:26:47 51°14.553 2°54.336 19.1851 2.46585 15.791562 -0.861272
2010-09-13 06:26:52 51°14.542 2°54.313 19.1617 2.466482 15.795745 -0.861272
2010-09-13 06:26:57 51°14.53 2°54.291 19.1678 2.465955 15.790351 -0.896096
2010-09-13 06:27:02 51°14.518 2°54.268 19.1839 2.466797 15.794305 -0.861272
2010-09-13 06:27:07 51°14.506 2°54.246 19.1544 2.467113 15.797735 -0.861272
2010-09-13 06:27:12 51°14.494 2°54.223 19.1653 2.467113 15.797735 -0.861272
2010-09-13 06:27:16 51°14.485 2°54.205 19.1488 2.471111 15.828456 -0.861272
2010-09-13 06:27:22 51°14.47 2°54.179 19.1734 2.469638 15.819101 -0.896096
2010-09-13 06:27:27 51°14.458 2°54.157 19.1737 2.468376 15.810977 -0.896096
2010-09-13 06:27:32 51°14.447 2°54.135 19.1527 2.469638 15.819589 -0.896096
2010-09-13 06:27:37 51°14.435 2°54.112 19.1683 2.469007 15.814429 -0.861272
2010-09-13 06:27:42 51°14.423 2°54.09 19.1789 2.469007 15.814429 -0.861272
2010-09-13 06:27:47 51°14.411 2°54.068 19.1656 2.470796 15.827219 -0.896096
2010-09-13 06:27:52 51°14.399 2°54.045 19.1788 2.473532 15.848364 -0.861272
2010-09-13 06:27:57 51°14.387 2°54.023 19.1512 2.470796 15.830149 -0.896096
2010-09-13 06:28:02 51°14.376 2°54.001 19.1829 2.467849 15.80875 -0.896096
2010-09-13 06:28:07 51°14.364 2°53.978 19.1452 2.471848 15.836553 -0.896096
2010-09-13 06:28:12 51°14.353 2°53.955 19.1725 2.471848 15.836553 -0.896096
2010-09-13 06:28:17 51°14.342 2°53.932 19.1627 2.47511 15.858704 -0.93092
2010-09-13 06:28:22 51°14.331 2°53.908 19.1799 2.470796 15.827951 -0.861272
2010-09-13 06:28:27 51°14.321 2°53.885 19.1646 2.471532 15.832873 -0.861272
2010-09-13 06:28:32 51°14.31 2°53.861 19.1801 2.472058 15.837297 -0.896096
2010-09-13 06:28:37 51°14.299 2°53.838 19.1773 2.471006 15.831625 -0.896096
2010-09-13 06:28:42 51°14.289 2°53.814 19.1514 2.471006 15.831625 -0.896096
2010-09-13 06:28:47 51°14.278 2°53.79 19.1767 2.474689 15.861868 -0.861272
2010-09-13 06:28:52 51°14.269 2°53.766 19.1442 2.474374 15.861611 -0.896096
2010-09-13 06:28:56 51°14.26 2°53.747 19.1689 2.472374 15.847823 -0.861272
2010-09-13 06:29:02 51°14.248 2°53.718 19.181 2.475321 15.867279 -0.861272
2010-09-13 06:29:07 51°14.238 2°53.695 19.1799 2.474163 15.8594 -0.861272
2010-09-13 06:29:12 51°14.228 2°53.671 19.1766 2.474163 15.8594 -0.861272
2010-09-13 06:29:17 51°14.217 2°53.648 19.1829 2.4729 15.84907 -0.861272
2010-09-13 06:29:22 51°14.207 2°53.624 19.1746 2.474163 15.856952 -0.861272
2010-09-13 06:29:27 51°14.196 2°53.601 19.1721 2.475952 15.869261 -0.896096
2010-09-13 06:29:32 51°14.186 2°53.577 19.1878 2.477215 15.878859 -0.896096
2010-09-13 06:29:37 51°14.175 2°53.554 19.1846 2.476268 15.873681 -0.896096
2010-09-13 06:29:42 51°14.165 2°53.53 19.1883 2.476268 15.873681 -0.896096
2010-09-13 06:29:47 51°14.155 2°53.506 19.1875 2.473111 15.85177 -0.861272
2010-09-13 06:29:52 51°14.144 2°53.484 19.1845 2.472479 15.845138 -0.896096
2010-09-13 06:29:57 51°14.134 2°53.459 19.1647 2.479109 15.891908 -0.896096
2010-09-13 06:30:02 51°14.124 2°53.436 19.1744 2.473953 15.85572 -0.896096
2010-09-13 06:30:07 51°14.113 2°53.412 19.1801 2.474479 15.860391 -0.896096
2010-09-13 06:30:12 51°14.103 2°53.389 19.1776 2.474479 15.860391 -0.896096
2010-09-13 06:30:17 51°14.092 2°53.365 19.192 2.473742 15.857425 -0.861272
2010-09-13 06:30:22 51°14.082 2°53.342 19.1611 2.473216 15.8552 -0.896096
2010-09-13 06:30:27 51°14.072 2°53.318 19.1754 2.47511 15.868251 -0.896096
2010-09-13 06:30:32 51°14.061 2°53.295 19.1756 2.4749 15.86408 -0.861272
2010-09-13 06:30:37 51°14.05 2°53.272 19.1913 2.473742 15.853999 -0.861272
2010-09-13 06:30:42 51°14.04 2°53.249 19.1668 2.473742 15.853999 -0.861272
2010-09-13 06:30:47 51°14.029 2°53.224 19.1855 2.470585 15.830871 -0.896096
2010-09-13 06:30:52 51°14.019 2°53.201 19.1903 2.474163 15.856463 -0.896096
2010-09-13 06:30:57 51°14.008 2°53.177 19.188 2.473111 15.849813 -0.861272
2010-09-13 06:31:02 51°13.998 2°53.153 19.1802 2.478267 15.88747 -0.861272
2010-09-13 06:31:07 51°13.988 2°53.129 19.1874 2.476373 15.87589 -0.896096
2010-09-13 06:31:12 51°13.978 2°53.105 19.1859 2.476373 15.87589 -0.896096
2010-09-13 06:31:16 51°13.969 2°53.087 19.1996 2.472374 15.848313 -0.861272
2010-09-13 06:31:22 51°13.957 2°53.058 19.1671 2.472585 15.84979 -0.896096
2010-09-13 06:31:27 51°13.946 2°53.035 19.1944 2.475636 15.872435 -0.896096
2010-09-13 06:31:32 51°13.936 2°53.011 19.1854 2.47511 15.869476 -0.896096
2010-09-13 06:31:37 51°13.925 2°52.988 19.1755 2.474374 15.865285 -0.861272
2010-09-13 06:31:42 51°13.914 2°52.964 19.1903 2.474374 15.865285 -0.861272
2010-09-13 06:31:47 51°13.904 2°52.94 19.1884 2.476268 15.879319 -0.861272
2010-09-13 06:31:52 51°13.893 2°52.917 19.1866 2.470796 15.840414 -0.896096
2010-09-13 06:31:57 51°13.883 2°52.894 19.1912 2.479319 15.900257 -0.896096
2010-09-13 06:32:02 51°13.872 2°52.871 19.1974 2.473216 15.856424 -0.896096
2010-09-13 06:32:07 51°13.862 2°52.848 19.1696 2.471322 15.84215 -0.896096
2010-09-13 06:32:12 51°13.851 2°52.824 19.167 2.471322 15.84215 -0.896096
2010-09-13 06:32:17 51°13.84 2°52.8 19.1757 2.477741 15.888682 -0.826448
2010-09-13 06:32:22 51°13.83 2°52.776 19.1716 2.473847 15.860122 -0.896096
2010-09-13 06:32:27 51°13.82 2°52.752 19.1953 2.472795 15.851512 -0.896096
2010-09-13 06:32:32 51°13.809 2°52.728 19.1843 2.475741 15.870723 -0.861272
2010-09-13 06:32:37 51°13.799 2°52.705 19.1898 2.47511 15.866292 -0.896096
2010-09-13 06:32:42 51°13.788 2°52.68 19.1793 2.47511 15.866292 -0.896096
2010-09-13 06:32:47 51°13.777 2°52.657 19.1923 2.473742 15.85718 -0.896096
2010-09-13 06:32:52 51°13.767 2°52.633 19.1911 2.4729 15.85225 -0.896096
2010-09-13 06:32:57 51°13.757 2°52.609 19.1896 2.471006 15.84238 -0.861272
2010-09-13 06:33:02 51°13.746 2°52.585 19.1922 2.472585 15.856889 -0.896096
2010-09-13 06:33:07 51°13.736 2°52.562 19.1952 2.47269 15.861058 -0.896096
2010-09-13 06:33:12 51°13.725 2°52.537 19.2006 2.47269 15.861058 -0.896096
2010-09-13 06:33:17 51°13.715 2°52.513 19.1894 2.472585 15.860809 -0.861272
2010-09-13 06:33:22 51°13.704 2°52.49 19.2055 2.471848 15.854165 -0.896096
2010-09-13 06:33:27 51°13.694 2°52.465 19.1831 2.471638 15.850484 -0.896096
2010-09-13 06:33:32 51°13.683 2°52.442 19.2055 2.475426 15.876595 -0.826448
2010-09-13 06:33:37 51°13.672 2°52.418 19.1695 2.471112 15.844587 -0.861272
2010-09-13 06:33:42 51°13.661 2°52.394 19.2068 2.471112 15.844587 -0.861272
2010-09-13 06:33:47 51°13.651 2°52.37 19.1748 2.476794 15.883013 -0.896096
2010-09-13 06:33:52 51°13.64 2°52.347 19.204 2.473848 15.863306 -0.896096
2010-09-13 06:33:57 51°13.63 2°52.322 19.1707 2.475847 15.879061 -0.861272
2010-09-13 06:34:02 51°13.619 2°52.298 19.2028 2.474269 15.871408 -0.896096
2010-09-13 06:34:07 51°13.608 2°52.274 19.1854 2.471112 15.848258 -0.861272
2010-09-13 06:34:12 51°13.598 2°52.251 19.1816 2.471112 15.848258 -0.861272
2010-09-13 06:34:17 51°13.587 2°52.226 19.1971 2.477215 15.89014 -0.861272
2010-09-13 06:34:22 51°13.577 2°52.203 19.2001 2.472795 15.855428 -0.861272
2010-09-13 06:34:27 51°13.566 2°52.179 19.1963 2.473006 15.855436 -0.93092
2010-09-13 06:34:32 51°13.555 2°52.155 19.2076 2.473847 15.860612 -0.896096
2010-09-13 06:34:37 51°13.545 2°52.131 19.1896 2.474479 15.866514 -0.896096
2010-09-13 06:34:42 51°13.534 2°52.108 19.203 2.474479 15.866514 -0.896096
2010-09-13 06:34:47 51°13.523 2°52.084 19.1918 2.476478 15.884476 -0.896096
2010-09-13 06:34:52 51°13.512 2°52.059 19.2156 2.472795 15.862777 -0.861272
2010-09-13 06:34:57 51°13.502 2°52.036 19.1937 2.476584 15.892825 -0.861272
2010-09-13 06:35:02 51°13.491 2°52.011 19.204 2.473216 15.870147 -0.896096
2010-09-13 06:35:07 51°13.481 2°51.987 19.1884 2.469744 15.842813 -0.896096
2010-09-13 06:35:12 51°13.47 2°51.964 19.2122 2.469744 15.842813 -0.896096
2010-09-13 06:35:17 51°13.459 2°51.94 19.1977 2.479214 15.908116 -0.861272
2010-09-13 06:35:22 51°13.448 2°51.916 19.2108 2.474689 15.873384 -0.861272
2010-09-13 06:35:27 51°13.438 2°51.891 19.1937 2.480056 15.90936 -0.861272
2010-09-13 06:35:32 51°13.427 2°51.868 19.2098 2.477425 15.891127 -0.896096
2010-09-13 06:35:37 51°13.417 2°51.844 19.212 2.474689 15.872893 -0.896096
2010-09-13 06:35:42 51°13.406 2°51.82 19.2108 2.474689 15.872893 -0.896096
2010-09-13 06:35:47 51°13.395 2°51.796 19.2067 2.472585 15.863505 -0.896096
2010-09-13 06:35:52 51°13.385 2°51.773 19.2149 2.478057 15.909571 -0.861272
2010-09-13 06:35:56 51°13.376 2°51.753 19.1911 2.473217 15.8753 -0.861272
2010-09-13 06:36:02 51°13.363 2°51.725 19.2028 2.471217 15.859042 -0.861272
2010-09-13 06:36:07 51°13.352 2°51.701 19.2074 2.474163 15.878519 -0.896096
2010-09-13 06:36:12 51°13.341 2°51.677 19.2152 2.474163 15.878519 -0.896096
2010-09-13 06:36:17 51°13.331 2°51.654 19.2206 2.469639 15.844523 -0.896096
2010-09-13 06:36:22 51°13.32 2°51.63 19.2157 2.47248 15.867425 -0.896096
2010-09-13 06:36:27 51°13.309 2°51.607 19.2047 2.473006 15.871367 -0.896096
2010-09-13 06:36:32 51°13.298 2°51.583 19.2151 2.47469 15.886146 -0.861272
2010-09-13 06:36:37 51°13.288 2°51.559 19.2074 2.473953 15.878513 -0.861272
2010-09-13 06:36:42 51°13.277 2°51.535 19.2127 2.473953 15.878513 -0.861272
2010-09-13 06:36:47 51°13.266 2°51.512 19.2222 2.475216 15.884932 -0.896096
2010-09-13 06:36:52 51°13.256 2°51.488 19.2221 2.474479 15.878529 -0.861272
2010-09-13 06:36:57 51°13.245 2°51.464 19.206 2.476268 15.890116 -0.826448
2010-09-13 06:37:02 51°13.234 2°51.44 19.2161 2.470901 15.852413 -0.826448
2010-09-13 06:37:07 51°13.224 2°51.416 19.2195 2.474164 15.881957 -0.896096
2010-09-13 06:37:12 51°13.213 2°51.392 19.2202 2.474164 15.881957 -0.896096
2010-09-13 06:37:17 51°13.203 2°51.368 19.2203 2.47248 15.873069 -0.896096
2010-09-13 06:37:22 51°13.192 2°51.344 19.2097 2.471533 15.866903 -0.896096
2010-09-13 06:37:27 51°13.181 2°51.32 19.2246 2.473111 15.876525 -0.896096
2010-09-13 06:37:32 51°13.171 2°51.296 19.2184 2.473532 15.876292 -0.861272
2010-09-13 06:37:37 51°13.16 2°51.272 19.2175 2.472269 15.865946 -0.861272
2010-09-13 06:37:42 51°13.149 2°51.249 19.2284 2.472269 15.865946 -0.861272
2010-09-13 06:37:47 51°13.139 2°51.224 19.2231 2.471007 15.857809 -0.896096
2010-09-13 06:37:52 51°13.128 2°51.2 19.2183 2.472375 15.871102 -0.861272
2010-09-13 06:37:57 51°13.118 2°51.176 19.2124 2.471849 15.869367 -0.896096
2010-09-13 06:38:02 51°13.107 2°51.152 19.2296 2.473638 15.886857 -0.896096
2010-09-13 06:38:07 51°13.096 2°51.129 19.231 2.472691 15.88118 -0.861272
2010-09-13 06:38:12 51°13.086 2°51.106 19.2149 2.472691 15.88118 -0.861272
2010-09-13 06:38:16 51°13.077 2°51.086 19.2343 2.470586 15.864417 -0.861272
2010-09-13 06:38:22 51°13.064 2°51.057 19.2276 2.471217 15.865174 -0.896096
2010-09-13 06:38:27 51°13.053 2°51.034 19.2225 2.468481 15.842269 -0.93092
2010-09-13 06:38:32 51°13.043 2°51.009 19.222 2.472901 15.873082 -0.896096
2010-09-13 06:38:37 51°13.032 2°50.986 19.2367 2.473743 15.879244 -0.896096
2010-09-13 06:38:42 51°13.021 2°50.962 19.2237 2.473743 15.879244 -0.896096
2010-09-13 06:38:47 51°13.011 2°50.938 19.2307 2.471112 15.864435 -0.896096
2010-09-13 06:38:52 51°13 2°50.914 19.2357 2.473427 15.88759 -0.861272
2010-09-13 06:38:57 51°12.99 2°50.89 19.2107 2.47227 15.881907 -0.896096
2010-09-13 06:39:02 51°12.979 2°50.866 19.2453 2.473743 15.889318 -0.861272
2010-09-13 06:39:07 51°12.968 2°50.843 19.2232 2.469955 15.858015 -0.861272
2010-09-13 06:39:12 51°12.957 2°50.819 19.2436 2.469955 15.858015 -0.861272
2010-09-13 06:39:17 51°12.947 2°50.795 19.2335 2.475006 15.894756 -0.896096
2010-09-13 06:39:22 51°12.936 2°50.771 19.2348 2.473112 15.883157 -0.896096
2010-09-13 06:39:27 51°12.926 2°50.747 19.2317 2.472375 15.877486 -0.861272
2010-09-13 06:39:32 51°12.915 2°50.723 19.2317 2.475111 15.897217 -0.861272
2010-09-13 06:39:37 51°12.904 2°50.699 19.2394 2.471849 15.873541 -0.861272
2010-09-13 06:39:42 51°12.894 2°50.675 19.239 2.471849 15.873541 -0.861272
2010-09-13 06:39:47 51°12.883 2°50.651 19.2454 2.470797 15.868598 -0.896096
2010-09-13 06:39:52 51°12.872 2°50.627 19.2419 2.47469 15.899424 -0.861272
2010-09-13 06:39:57 51°12.862 2°50.603 19.2296 2.474059 15.896951 -0.861272
2010-09-13 06:40:02 51°12.851 2°50.58 19.2393 2.470586 15.875471 -0.826448
2010-09-13 06:40:07 51°12.84 2°50.556 19.2268 2.472375 15.890272 -0.861272
2010-09-13 06:40:12 51°12.83 2°50.532 19.2289 2.472375 15.890272 -0.861272
2010-09-13 06:40:16 51°12.821 2°50.513 19.2398 2.479952 15.948541 -0.861272
2010-09-13 06:40:22 51°12.809 2°50.484 19.2366 2.469745 15.875941 -0.861272
2010-09-13 06:40:27 51°12.798 2°50.461 19.243 2.469534 15.87028 -0.861272
2010-09-13 06:40:32 51°12.787 2°50.437 19.2584 2.47248 15.88683 -0.861272
2010-09-13 06:40:37 51°12.776 2°50.414 19.2221 2.466482 15.839978 -0.861272
2010-09-13 06:40:42 51°12.765 2°50.39 19.2493 2.466482 15.839978 -0.861272
2010-09-13 06:40:47 51°12.755 2°50.366 19.2349 2.479215 15.935946 -0.896096
2010-09-13 06:40:52 51°12.744 2°50.343 19.2389 2.471533 15.879184 -0.861272
2010-09-13 06:40:57 51°12.733 2°50.319 19.2522 2.469113 15.860195 -0.861272
2010-09-13 06:41:02 51°12.723 2°50.295 19.2285 2.475742 15.905596 -0.896096
2010-09-13 06:41:07 51°12.712 2°50.271 19.253 2.477636 15.91966 -0.896096
2010-09-13 06:41:12 51°12.702 2°50.247 19.2359 2.477636 15.91966 -0.896096
2010-09-13 06:41:17 51°12.691 2°50.223 19.254 2.470376 15.868093 -0.861272
2010-09-13 06:41:22 51°12.68 2°50.199 19.2465 2.470271 15.87325 -0.896096
2010-09-13 06:41:27 51°12.669 2°50.175 19.2542 2.474585 15.913959 -0.896096
2010-09-13 06:41:32 51°12.659 2°50.151 19.251 2.476269 15.930753 -0.826448
2010-09-13 06:41:37 51°12.648 2°50.127 19.2435 2.471007 15.888521 -0.861272
2010-09-13 06:41:42 51°12.638 2°50.103 19.2401 2.471007 15.888521 -0.861272
2010-09-13 06:41:47 51°12.627 2°50.08 19.2604 2.47227 15.891501 -0.896096
2010-09-13 06:41:52 51°12.617 2°50.055 19.2444 2.469534 15.866102 -0.896096
2010-09-13 06:41:57 51°12.606 2°50.032 19.2426 2.471323 15.879178 -0.896096
2010-09-13 06:42:02 51°12.595 2°50.008 19.2499 2.469639 15.870529 -0.861272
2010-09-13 06:42:07 51°12.585 2°49.983 19.2413 2.474375 15.909271 -0.861272
2010-09-13 06:42:12 51°12.574 2°49.959 19.2514 2.474375 15.909271 -0.861272
2010-09-13 06:42:17 51°12.564 2°49.935 19.2507 2.474796 15.917167 -0.861272
2010-09-13 06:42:22 51°12.553 2°49.911 19.2615 2.469955 15.883821 -0.896096
2010-09-13 06:42:27 51°12.543 2°49.887 19.2394 2.474585 15.921855 -0.896096
2010-09-13 06:42:32 51°12.531 2°49.864 19.2659 2.469219 15.878634 -0.896096
2010-09-13 06:42:36 51°12.523 2°49.844 19.2445 2.474059 15.909267 -0.861272
2010-09-13 06:42:42 51°12.51 2°49.816 19.2601 2.474059 15.909267 -0.861272
2010-09-13 06:42:47 51°12.5 2°49.791 19.2468 2.471744 15.892476 -0.861272
2010-09-13 06:42:52 51°12.49 2°49.767 19.2641 2.470376 15.879647 -0.896096
2010-09-13 06:42:56 51°12.483 2°49.747 19.2431 2.47227 15.893717 -0.896096
2010-09-13 06:43:02 51°12.471 2°49.717 19.2621 2.471955 15.896421 -0.896096
2010-09-13 06:43:07 51°12.463 2°49.691 19.252 2.468061 15.873437 -0.861272
2010-09-13 06:43:12 51°12.454 2°49.665 19.2681 2.468061 15.873437 -0.861272
2010-09-13 06:43:17 51°12.445 2°49.64 19.2577 2.470587 15.89344 -0.861272
2010-09-13 06:43:22 51°12.437 2°49.614 19.2647 2.475006 15.931245 -0.896096
2010-09-13 06:43:27 51°12.429 2°49.588 19.2566 2.47185 15.908503 -0.896096
2010-09-13 06:43:32 51°12.42 2°49.562 19.2606 2.477005 15.939155 -0.861272
2010-09-13 06:43:37 51°12.412 2°49.536 19.2621 2.473323 15.909505 -0.861272
2010-09-13 06:43:42 51°12.403 2°49.51 19.2654 2.473323 15.909505 -0.861272
2010-09-13 06:43:47 51°12.396 2°49.484 19.2439 2.472481 15.902837 -0.861272
2010-09-13 06:43:52 51°12.387 2°49.458 19.2707 2.468272 15.873197 -0.896096
2010-09-13 06:43:57 51°12.379 2°49.431 19.2613 2.471008 15.89394 -0.896096
2010-09-13 06:44:02 51°12.371 2°49.405 19.2793 2.473428 15.91691 -0.896096
2010-09-13 06:44:07 51°12.362 2°49.379 19.2721 2.469009 15.887743 -0.861272
2010-09-13 06:44:12 51°12.354 2°49.353 19.2659 2.469009 15.887743 -0.861272
2010-09-13 06:44:16 51°12.347 2°49.332 19.2713 2.474691 15.935201 -0.861272
2010-09-13 06:44:22 51°12.337 2°49.3 19.2791 2.468167 15.887235 -0.861272
2010-09-13 06:44:27 51°12.329 2°49.274 19.271 2.471113 15.907508 -0.861272
2010-09-13 06:44:32 51°12.32 2°49.248 19.2737 2.469324 15.892433 -0.896096
2010-09-13 06:44:37 51°12.312 2°49.221 19.2665 2.47227 15.910235 -0.861272
2010-09-13 06:44:42 51°12.303 2°49.195 19.2811 2.47227 15.910235 -0.861272
2010-09-13 06:44:47 51°12.295 2°49.169 19.275 2.469955 15.892937 -0.861272
2010-09-13 06:44:52 51°12.287 2°49.143 19.2807 2.471113 15.900845 -0.861272
2010-09-13 06:44:56 51°12.28 2°49.122 19.2821 2.472165 15.909987 -0.896096
2010-09-13 06:45:02 51°12.27 2°49.09 19.284 2.470061 15.896884 -0.861272
2010-09-13 06:45:07 51°12.261 2°49.063 19.2755 2.469535 15.896876 -0.896096
2010-09-13 06:45:12 51°12.253 2°49.037 19.2793 2.469535 15.896876 -0.896096
2010-09-13 06:45:17 51°12.245 2°49.011 19.2822 2.474165 15.933965 -0.896096
2010-09-13 06:45:22 51°12.237 2°48.984 19.2786 2.47448 15.937181 -0.896096
2010-09-13 06:45:27 51°12.229 2°48.957 19.2697 2.470271 15.902315 -0.896096
2010-09-13 06:45:32 51°12.22 2°48.932 19.2885 2.470166 15.899846 -0.861272
2010-09-13 06:45:37 51°12.212 2°48.906 19.2717 2.475638 15.941137 -0.861272
2010-09-13 06:45:42 51°12.203 2°48.879 19.2917 2.475638 15.941137 -0.861272
2010-09-13 06:45:47 51°12.195 2°48.852 19.2797 2.470797 15.908246 -0.861272
2010-09-13 06:45:52 51°12.186 2°48.826 19.2757 2.472797 15.921847 -0.896096
2010-09-13 06:45:57 51°12.178 2°48.8 19.2915 2.472902 15.9216 -0.896096
2010-09-13 06:46:02 51°12.17 2°48.773 19.2755 2.47206 15.917148 -0.826448
2010-09-13 06:46:07 51°12.161 2°48.747 19.2915 2.473428 15.930008 -0.861272
2010-09-13 06:46:12 51°12.153 2°48.721 19.2752 2.473428 15.930008 -0.861272
2010-09-13 06:46:17 51°12.144 2°48.695 19.298 2.467115 15.881052 -0.826448
2010-09-13 06:46:22 51°12.137 2°48.668 19.2862 2.472481 15.923824 -0.896096
2010-09-13 06:46:27 51°12.128 2°48.641 19.2999 2.471008 15.915907 -0.861272
2010-09-13 06:46:32 51°12.12 2°48.615 19.294 2.473218 15.930008 -0.896096
2010-09-13 06:46:37 51°12.112 2°48.588 19.2977 2.469009 15.895389 -0.826448
2010-09-13 06:46:42 51°12.104 2°48.562 19.2833 2.469009 15.895389 -0.826448
2010-09-13 06:46:47 51°12.095 2°48.535 19.2999 2.470587 15.906021 -0.861272
2010-09-13 06:46:52 51°12.087 2°48.509 19.2911 2.473218 15.923578 -0.861272
2010-09-13 06:46:56 51°12.08 2°48.488 19.2931 2.472586 15.92234 -0.861272
2010-09-13 06:47:02 51°12.07 2°48.456 19.2944 2.468693 15.896618 -0.896096
2010-09-13 06:47:07 51°12.062 2°48.429 19.2839 2.468378 15.901306 -0.861272
2010-09-13 06:47:12 51°12.053 2°48.403 19.3043 2.468378 15.901306 -0.861272
2010-09-13 06:47:17 51°12.045 2°48.376 19.2999 2.46964 15.912933 -0.861272
2010-09-13 06:47:22 51°12.037 2°48.35 19.2904 2.469219 15.912189 -0.861272
2010-09-13 06:47:27 51°12.028 2°48.323 19.3074 2.470272 15.914914 -0.861272
2010-09-13 06:47:32 51°12.02 2°48.297 19.2987 2.465747 15.873628 -0.861272
2010-09-13 06:47:37 51°12.011 2°48.27 19.3092 2.467536 15.886977 -0.861272
2010-09-13 06:47:42 51°12.003 2°48.244 19.2903 2.467536 15.886977 -0.861272
2010-09-13 06:47:47 51°11.994 2°48.218 19.3123 2.468693 15.895878 -0.896096
2010-09-13 06:47:52 51°11.986 2°48.192 19.2902 2.472586 15.926297 -0.896096
2010-09-13 06:47:57 51°11.977 2°48.165 19.3113 2.474901 15.948074 -0.896096
2010-09-13 06:48:02 51°11.97 2°48.139 19.293 2.466063 15.883251 -0.896096
2010-09-13 06:48:07 51°11.961 2°48.112 19.3104 2.474691 15.948572 -0.896096
2010-09-13 06:48:12 51°11.953 2°48.085 19.3025 2.474691 15.948572 -0.896096
2010-09-13 06:48:17 51°11.945 2°48.059 19.3062 2.466799 15.889186 -0.896096
2010-09-13 06:48:22 51°11.936 2°48.033 19.3132 2.466589 15.885481 -0.896096
2010-09-13 06:48:27 51°11.928 2°48.006 19.315 2.467957 15.898091 -0.896096
2010-09-13 06:48:32 51°11.92 2°47.98 19.3159 2.469219 15.909222 -0.861272
2010-09-13 06:48:37 51°11.912 2°47.953 19.3063 2.468904 15.910703 -0.861272
2010-09-13 06:48:42 51°11.904 2°47.927 19.3106 2.468904 15.910703 -0.861272
2010-09-13 06:48:47 51°11.895 2°47.9 19.3073 2.470061 15.917881 -0.861272
2010-09-13 06:48:52 51°11.887 2°47.873 19.3156 2.46501 15.876818 -0.896096
2010-09-13 06:48:57 51°11.878 2°47.847 19.3104 2.468693 15.90551 -0.896096
2010-09-13 06:49:02 51°11.87 2°47.82 19.3097 2.468272 15.903776 -0.861272
2010-09-13 06:49:07 51°11.862 2°47.794 19.3177 2.470272 15.919119 -0.861272
2010-09-13 06:49:12 51°11.853 2°47.768 19.3219 2.470272 15.919119 -0.861272
2010-09-13 06:49:16 51°11.847 2°47.747 19.3219 2.468799 15.910702 -0.896096
2010-09-13 06:49:22 51°11.837 2°47.715 19.3118 2.46722 15.898329 -0.896096
2010-09-13 06:49:27 51°11.829 2°47.688 19.3112 2.471955 15.933476 -0.896096
2010-09-13 06:49:32 51°11.82 2°47.662 19.3209 2.470693 15.924564 -0.826448
2010-09-13 06:49:36 51°11.813 2°47.64 19.3174 2.465852 15.886209 -0.861272
2010-09-13 06:49:42 51°11.803 2°47.609 19.3265 2.465852 15.886209 -0.861272
2010-09-13 06:49:47 51°11.795 2°47.582 19.3249 2.468588 15.907239 -0.896096
2010-09-13 06:49:52 51°11.787 2°47.556 19.3052 2.468483 15.906744 -0.896096
2010-09-13 06:49:57 51°11.778 2°47.529 19.3295 2.468588 15.911443 -0.861272
2010-09-13 06:50:02 51°11.77 2°47.503 19.3151 2.472587 15.942888 -0.861272
2010-09-13 06:50:07 51°11.761 2°47.476 19.3342 2.46922 15.919859 -0.861272
2010-09-13 06:50:12 51°11.753 2°47.45 19.3179 2.46922 15.919859 -0.861272
2010-09-13 06:50:17 51°11.745 2°47.423 19.3304 2.467431 15.905995 -0.896096
2010-09-13 06:50:22 51°11.736 2°47.397 19.3318 2.470167 15.925059 -0.861272
2010-09-13 06:50:27 51°11.728 2°47.37 19.3362 2.4648 15.88323 -0.896096
2010-09-13 06:50:32 51°11.719 2°47.344 19.3256 2.469009 15.914414 -0.861272
2010-09-13 06:50:37 51°11.71 2°47.317 19.3206 2.469535 15.918375 -0.861272
2010-09-13 06:50:42 51°11.702 2°47.291 19.3332 2.469535 15.918375 -0.861272
2010-09-13 06:50:47 51°11.694 2°47.264 19.3405 2.468062 15.904269 -0.896096
2010-09-13 06:50:52 51°11.685 2°47.238 19.3313 2.465537 15.885957 -0.826448
2010-09-13 06:50:56 51°11.679 2°47.217 19.3348 2.472061 15.936696 -0.861272
2010-09-13 06:51:02 51°11.669 2°47.185 19.3426 2.465747 15.895842 -0.861272
2010-09-13 06:51:07 51°11.66 2°47.158 19.3213 2.469641 15.925555 -0.861272
2010-09-13 06:51:12 51°11.652 2°47.132 19.3388 2.469641 15.925555 -0.861272
2010-09-13 06:51:16 51°11.645 2°47.111 19.3176 2.465747 15.895595 -0.896096
2010-09-13 06:51:22 51°11.635 2°47.079 19.3422 2.466905 15.905249 -0.896096
2010-09-13 06:51:27 51°11.627 2°47.052 19.3411 2.466168 15.900544 -0.896096
2010-09-13 06:51:32 51°11.618 2°47.026 19.32 2.466589 15.905495 -0.896096
2010-09-13 06:51:37 51°11.61 2°46.999 19.3464 2.471324 15.938435 -0.896096
2010-09-13 06:51:42 51°11.602 2°46.973 19.3338 2.471324 15.938435 -0.896096
2010-09-13 06:51:47 51°11.593 2°46.946 19.3392 2.464905 15.889159 -0.93092
2010-09-13 06:51:52 51°11.585 2°46.92 19.346 2.472482 15.94909 -0.896096
2010-09-13 06:51:56 51°11.578 2°46.899 19.3476 2.468273 15.918373 -0.896096
2010-09-13 06:52:02 51°11.568 2°46.866 19.3392 2.467326 15.905747 -0.861272
2010-09-13 06:52:07 51°11.559 2°46.84 19.3437 2.472797 15.946854 -0.861272
2010-09-13 06:52:12 51°11.551 2°46.813 19.3504 2.472797 15.946854 -0.861272
2010-09-13 06:52:16 51°11.544 2°46.792 19.347 2.467431 15.908469 -0.896096
2010-09-13 06:52:22 51°11.534 2°46.76 19.3512 2.467536 15.907975 -0.896096
2010-09-13 06:52:27 51°11.526 2°46.733 19.3501 2.466168 15.897083 -0.896096
2010-09-13 06:52:32 51°11.517 2°46.706 19.3466 2.465011 15.888172 -0.896096
2010-09-13 06:52:37 51°11.509 2°46.68 19.3487 2.472692 15.950329 -0.861272
2010-09-13 06:52:42 51°11.501 2°46.653 19.3598 2.472692 15.950329 -0.861272
2010-09-13 06:52:47 51°11.493 2°46.626 19.3445 2.469536 15.937705 -0.861272
2010-09-13 06:52:52 51°11.484 2°46.599 19.3598 2.467536 15.921594 -0.861272
2010-09-13 06:52:57 51°11.476 2°46.573 19.3496 2.468168 15.922089 -0.861272
2010-09-13 06:53:02 51°11.467 2°46.546 19.3516 2.465747 15.902025 -0.896096
2010-09-13 06:53:07 51°11.459 2°46.519 19.3517 2.468904 15.924566 -0.896096
2010-09-13 06:53:12 51°11.451 2°46.492 19.3608 2.468904 15.924566 -0.896096
2010-09-13 06:53:17 51°11.442 2°46.465 19.3587 2.469325 15.930017 -0.861272
2010-09-13 06:53:22 51°11.434 2°46.438 19.3677 2.46701 15.919116 -0.861272
2010-09-13 06:53:27 51°11.426 2°46.411 19.3469 2.465642 15.913912 -0.861272
2010-09-13 06:53:32 51°11.417 2°46.384 19.3628 2.463959 15.90474 -0.861272
2010-09-13 06:53:36 51°11.411 2°46.363 19.3383 2.472167 15.971717 -0.861272
2010-09-13 06:53:42 51°11.4 2°46.331 19.3659 2.472167 15.971717 -0.861272
2010-09-13 06:53:47 51°11.392 2°46.304 19.3589 2.468589 15.945912 -0.896096
2010-09-13 06:53:52 51°11.383 2°46.277 19.3627 2.467116 15.931519 -0.861272
2010-09-13 06:53:56 51°11.377 2°46.255 19.3593 2.468273 15.936972 -0.896096
2010-09-13 06:54:02 51°11.367 2°46.223 19.3642 2.466274 15.917878 -0.826448
2010-09-13 06:54:07 51°11.358 2°46.196 19.3646 2.470062 15.942912 -0.896096
2010-09-13 06:54:12 51°11.35 2°46.169 19.3646 2.470062 15.942912 -0.896096
2010-09-13 06:54:17 51°11.342 2°46.142 19.3708 2.470167 15.943904 -0.896096
2010-09-13 06:54:22 51°11.333 2°46.115 19.3572 2.47164 15.958541 -0.861272
2010-09-13 06:54:27 51°11.325 2°46.089 19.3758 2.466169 15.919366 -0.896096
2010-09-13 06:54:32 51°11.316 2°46.062 19.3616 2.470378 15.951105 -0.826448
2010-09-13 06:54:37 51°11.308 2°46.036 19.3704 2.467642 15.928538 -0.896096
2010-09-13 06:54:42 51°11.299 2°46.009 19.3623 2.467642 15.928538 -0.896096
2010-09-13 06:54:47 51°11.291 2°45.982 19.3723 2.464801 15.904495 -0.896096
2010-09-13 06:54:52 51°11.283 2°45.955 19.3668 2.463327 15.892851 -0.826448
2010-09-13 06:54:57 51°11.274 2°45.928 19.3738 2.468904 15.935973 -0.861272
2010-09-13 06:55:02 51°11.266 2°45.902 19.3797 2.467011 15.929286 -0.896096
2010-09-13 06:55:07 51°11.257 2°45.875 19.382 2.470483 15.956076 -0.896096
2010-09-13 06:55:12 51°11.249 2°45.848 19.3879 2.470483 15.956076 -0.896096
2010-09-13 06:55:17 51°11.24 2°45.822 19.3799 2.464064 15.909201 -0.861272
2010-09-13 06:55:22 51°11.232 2°45.795 19.3792 2.467642 15.935736 -0.896096
2010-09-13 06:55:27 51°11.223 2°45.768 19.3947 2.46659 15.924573 -0.896096
2010-09-13 06:55:32 51°11.215 2°45.741 19.3748 2.475218 15.986079 -0.896096
2010-09-13 06:55:37 51°11.206 2°45.715 19.3934 2.467642 15.934991 -0.861272
2010-09-13 06:55:42 51°11.199 2°45.688 19.3782 2.467642 15.934991 -0.861272
2010-09-13 06:55:47 51°11.19 2°45.661 19.3929 2.465853 15.925322 -0.861272
2010-09-13 06:55:52 51°11.182 2°45.634 19.3736 2.468694 15.948645 -0.896096
2010-09-13 06:55:56 51°11.175 2°45.613 19.3857 2.468484 15.947405 -0.896096
2010-09-13 06:56:02 51°11.165 2°45.581 19.3821 2.465432 15.925076 -0.861272
2010-09-13 06:56:07 51°11.156 2°45.555 19.3808 2.465748 15.923833 -0.896096
2010-09-13 06:56:12 51°11.148 2°45.527 19.3837 2.465748 15.923833 -0.896096
2010-09-13 06:56:16 51°11.141 2°45.506 19.3911 2.469957 15.95136 -0.896096
2010-09-13 06:56:22 51°11.131 2°45.474 19.3864 2.46659 15.922589 -0.861272
2010-09-13 06:56:27 51°11.123 2°45.447 19.395 2.46459 15.907715 -0.861272
2010-09-13 06:56:32 51°11.114 2°45.42 19.3847 2.468904 15.938704 -0.861272
2010-09-13 06:56:37 51°11.106 2°45.393 19.391 2.466274 15.923334 -0.861272
2010-09-13 06:56:42 51°11.098 2°45.366 19.3899 2.466274 15.923334 -0.861272
2010-09-13 06:56:47 51°11.089 2°45.339 19.3877 2.465537 15.922841 -0.896096
2010-09-13 06:56:52 51°11.081 2°45.313 19.3782 2.469641 15.957086 -0.861272
2010-09-13 06:56:57 51°11.073 2°45.286 19.4068 2.462907 15.909697 -0.896096
2010-09-13 06:57:02 51°11.064 2°45.259 19.3906 2.468273 15.949149 -0.896096
2010-09-13 06:57:07 51°11.055 2°45.232 19.4064 2.468168 15.949897 -0.861272
2010-09-13 06:57:12 51°11.048 2°45.204 19.3822 2.468168 15.949897 -0.861272
2010-09-13 06:57:17 51°11.039 2°45.177 19.4019 2.4668 15.940467 -0.861272
2010-09-13 06:57:22 51°11.031 2°45.151 19.3805 2.46922 15.955352 -0.896096
2010-09-13 06:57:27 51°11.022 2°45.126 19.4008 2.463538 15.913418 -0.861272
2010-09-13 06:57:32 51°11.015 2°45.102 19.3972 2.465748 15.929544 -0.861272
2010-09-13 06:57:37 51°11.008 2°45.078 19.3839 2.466906 15.93972 -0.861272
2010-09-13 06:57:42 51°11.001 2°45.055 19.4026 2.466906 15.93972 -0.861272
2010-09-13 06:57:47 51°10.994 2°45.034 19.4174 2.468168 15.94741 -0.896096
2010-09-13 06:57:52 51°10.988 2°45.014 19.4146 2.463644 15.915403 -0.861272
2010-09-13 06:57:56 51°10.984 2°44.999 19.4131 2.4688 15.961087 -0.861272
2010-09-13 06:58:02 51°10.977 2°44.978 19.4082 2.472483 15.990155 -0.896096
2010-09-13 06:58:07 51°10.972 2°44.96 19.409 2.474271 16.004073 -0.896096
2010-09-13 06:58:12 51°10.967 2°44.943 19.4294 2.474271 16.004073 -0.896096
2010-09-13 06:58:16 51°10.963 2°44.93 19.4285 2.476271 16.017484 -0.861272
2010-09-13 06:58:22 51°10.957 2°44.912 19.4261 2.469431 15.963813 -0.896096
2010-09-13 06:58:27 51°10.952 2°44.896 19.4272 2.481637 16.050992 -0.896096
2010-09-13 06:58:32 51°10.948 2°44.882 19.4294 2.470904 15.972247 -0.896096
2010-09-13 06:58:37 51°10.943 2°44.867 19.4308 2.471746 15.979203 -0.861272
2010-09-13 06:58:42 51°10.939 2°44.854 19.4235 2.471746 15.979203 -0.861272
2010-09-13 06:58:47 51°10.934 2°44.84 19.4276 2.481111 16.048518 -0.896096
2010-09-13 06:58:52 51°10.93 2°44.827 19.4297 2.476165 16.013989 -0.896096
2010-09-13 06:58:56 51°10.926 2°44.816 19.4288 2.472588 15.988904 -0.861272
2010-09-13 06:59:02 51°10.921 2°44.8 19.4311 2.48269 16.067222 -0.861272
2010-09-13 06:59:07 51°10.916 2°44.787 19.4304 2.474903 16.014295 -0.896096
2010-09-13 06:59:12 51°10.912 2°44.775 19.4257 2.474903 16.014295 -0.896096
2010-09-13 06:59:16 51°10.909 2°44.766 19.4246 2.476166 16.023743 -0.896096
2010-09-13 06:59:22 51°10.905 2°44.752 19.4245 2.471115 15.983463 -0.826448
2010-09-13 06:59:27 51°10.901 2°44.742 19.4297 2.469431 15.967301 -0.861272
2010-09-13 06:59:32 51°10.898 2°44.732 19.4339 2.479006 16.03211 -0.896096
2010-09-13 06:59:37 51°10.896 2°44.723 19.416 2.468589 15.954618 -0.861272
2010-09-13 06:59:42 51°10.893 2°44.714 19.4315 2.468589 15.954618 -0.861272
2010-09-13 06:59:47 51°10.892 2°44.706 19.4296 2.480269 16.040802 -0.826448
2010-09-13 06:59:52 51°10.891 2°44.699 19.4258 2.473535 15.996609 -0.826448
2010-09-13 06:59:57 51°10.89 2°44.692 19.4258 2.467116 15.948671 -0.896096
2010-09-13 07:00:02 51°10.889 2°44.686 19.4322 2.473745 15.997849 -0.826448
2010-09-13 07:00:07 51°10.889 2°44.681 19.4412 2.476165 16.014239 -0.861272
2010-09-13 07:00:12 51°10.888 2°44.676 19.4421 2.476165 16.014239 -0.861272
2010-09-13 07:00:17 51°10.888 2°44.671 19.4405 2.469221 15.963319 -0.861272
2010-09-13 07:00:22 51°10.888 2°44.667 19.4446 2.471009 15.976481 -0.896096
2010-09-13 07:00:27 51°10.888 2°44.664 19.449 2.474692 16.004556 -0.861272
2010-09-13 07:00:32 51°10.887 2°44.66 19.4503 2.47101 15.98147 -0.861272
2010-09-13 07:00:36 51°10.887 2°44.658 19.4448 2.481006 16.060557 -0.93092
2010-09-13 07:00:42 51°10.887 2°44.656 19.4503 2.481006 16.060557 -0.93092
2010-09-13 07:00:47 51°10.887 2°44.654 19.459 2.471957 15.995419 -0.896096
2010-09-13 07:00:52 51°10.887 2°44.652 19.4563 2.473114 16.00412 -0.861272
2010-09-13 07:00:57 51°10.886 2°44.651 19.4503 2.480059 16.053091 -0.861272
2010-09-13 07:01:02 51°10.886 2°44.65 19.448 2.472588 15.996394 -0.861272
2010-09-13 07:01:07 51°10.885 2°44.65 19.4544 2.479954 16.047332 -0.861272
2010-09-13 07:01:12 51°10.885 2°44.65 19.4606 2.479954 16.047332 -0.861272
2010-09-13 07:01:17 51°10.884 2°44.65 19.4629 2.472588 15.992398 -0.861272
2010-09-13 07:01:22 51°10.884 2°44.649 19.4569 2.475534 16.016268 -0.896096
2010-09-13 07:01:27 51°10.883 2°44.649 19.4567 2.474377 16.008067 -0.861272
2010-09-13 07:01:32 51°10.882 2°44.649 19.4728 2.478796 16.042887 -0.896096
2010-09-13 07:01:37 51°10.882 2°44.649 19.4751 2.472272 15.995657 -0.896096
2010-09-13 07:01:42 51°10.881 2°44.649 19.4634 2.472272 15.995657 -0.896096
2010-09-13 07:01:47 51°10.881 2°44.649 19.4582 2.473009 16.004375 -0.861272
2010-09-13 07:01:52 51°10.88 2°44.649 19.471 2.47343 16.005357 -0.861272
2010-09-13 07:01:57 51°10.879 2°44.648 19.4738 2.47101 15.984964 -0.93092
2010-09-13 07:02:02 51°10.879 2°44.649 19.4731 2.475639 16.016263 -0.826448
2010-09-13 07:02:07 51°10.878 2°44.648 19.4633 2.470168 15.97476 -0.861272
2010-09-13 07:02:12 51°10.878 2°44.648 19.3886 2.470168 15.97476 -0.861272
2010-09-13 07:02:17 51°10.878 2°44.648 19.4066 2.473219 15.99737 -0.861272
2010-09-13 07:02:22 51°10.877 2°44.648 19.4178 2.46217 15.896556 -0.861272
2010-09-13 07:02:27 51°10.876 2°44.649 19.4251 2.460171 15.873519 -0.861272
2010-09-13 07:02:32 51°10.876 2°44.648 19.4259 2.458487 15.860391 -0.896096
2010-09-13 07:02:36 51°10.875 2°44.649 19.431 2.470588 15.966276 -0.93092
2010-09-13 07:02:42 51°10.875 2°44.649 19.4325 2.470588 15.966276 -0.93092
2010-09-13 07:02:47 51°10.874 2°44.649 19.4337 2.471009 15.979474 -0.826448
2010-09-13 07:02:52 51°10.873 2°44.649 19.4357 2.469957 15.97302 -0.826448
2010-09-13 07:02:56 51°10.873 2°44.649 19.4377 2.47101 15.982468 -0.861272
2010-09-13 07:03:02 51°10.872 2°44.65 19.4397 2.465222 15.943725 -0.896096
2010-09-13 07:03:07 51°10.872 2°44.65 19.4432 2.470484 15.985481 -0.896096
2010-09-13 07:03:12 51°10.872 2°44.65 19.4455 2.470484 15.985481 -0.896096
2010-09-13 07:03:16 51°10.871 2°44.65 19.4465 2.466801 15.959389 -0.826448
2010-09-13 07:03:22 51°10.87 2°44.65 19.4491 2.468274 15.970074 -0.896096
2010-09-13 07:03:27 51°10.869 2°44.65 19.4502 2.465012 15.944227 -0.861272
2010-09-13 07:03:32 51°10.868 2°44.651 19.4505 2.467537 15.961366 -0.896096
2010-09-13 07:03:37 51°10.868 2°44.651 19.4523 2.46901 15.9718 -0.861272
2010-09-13 07:03:42 51°10.867 2°44.651 19.4559 2.46901 15.9718 -0.861272
2010-09-13 07:03:47 51°10.866 2°44.651 19.4563 2.466801 15.95565 -0.896096
2010-09-13 07:03:52 51°10.866 2°44.652 19.4596 2.468589 15.969068 -0.861272
2010-09-13 07:03:57 51°10.865 2°44.652 19.4619 2.465959 15.94919 -0.861272
2010-09-13 07:04:02 51°10.864 2°44.652 19.4632 2.467748 15.962108 -0.861272
2010-09-13 07:04:07 51°10.863 2°44.652 19.4683 2.466695 15.95341 -0.861272
2010-09-13 07:04:12 51°10.863 2°44.652 19.4711 2.466695 15.95341 -0.861272
2010-09-13 07:04:17 51°10.862 2°44.653 19.4746 2.464591 15.937512 -0.826448
2010-09-13 07:04:22 51°10.862 2°44.653 19.4734 2.468169 15.965339 -0.861272
2010-09-13 07:04:27 51°10.861 2°44.653 19.4761 2.465959 15.949938 -0.861272
2010-09-13 07:04:32 51°10.86 2°44.654 19.4768 2.466801 15.957893 -0.896096
2010-09-13 07:04:37 51°10.86 2°44.654 19.4825 2.466485 15.955906 -0.861272
2010-09-13 07:04:42 51°10.859 2°44.654 19.4846 2.466485 15.955906 -0.861272
2010-09-13 07:04:47 51°10.858 2°44.654 19.4853 2.466485 15.956654 -0.861272
2010-09-13 07:04:52 51°10.858 2°44.654 19.4879 2.467432 15.964111 -0.896096
2010-09-13 07:04:57 51°10.857 2°44.654 19.4912 2.467643 15.965352 -0.861272
2010-09-13 07:05:02 51°10.856 2°44.654 19.492 2.465749 15.951935 -0.861272
2010-09-13 07:05:07 51°10.856 2°44.655 19.4944 2.464486 15.944236 -0.861272
2010-09-13 07:05:12 51°10.855 2°44.655 19.4952 2.464486 15.944236 -0.861272
2010-09-13 07:05:16 51°10.854 2°44.654 19.4971 2.468379 15.973565 -0.861272
2010-09-13 07:05:22 51°10.854 2°44.655 19.4975 2.468274 15.973818 -0.861272
2010-09-13 07:05:27 51°10.853 2°44.655 19.4989 2.465222 15.951697 -0.861272
2010-09-13 07:05:32 51°10.852 2°44.655 19.502 2.464802 15.948216 -0.861272
2010-09-13 07:05:36 51°10.851 2°44.655 19.5042 2.46417 15.942996 -0.826448
2010-09-13 07:05:42 51°10.851 2°44.655 19.5072 2.46417 15.942996 -0.826448
2010-09-13 07:05:47 51°10.85 2°44.655 19.5091 2.465012 15.948461 -0.861272
2010-09-13 07:05:52 51°10.849 2°44.655 19.5085 2.465222 15.950201 -0.861272
2010-09-13 07:05:57 51°10.848 2°44.655 19.5112 2.465854 15.954674 -0.896096
2010-09-13 07:06:02 51°10.848 2°44.655 19.5112 2.465854 15.954923 -0.861272
2010-09-13 07:06:07 51°10.847 2°44.655 19.5194 2.467011 15.963623 -0.861272
2010-09-13 07:06:12 51°10.846 2°44.655 19.5203 2.467011 15.963623 -0.861272
2010-09-13 07:06:17 51°10.846 2°44.655 19.5233 2.463749 15.940015 -0.896096
2010-09-13 07:06:22 51°10.845 2°44.655 19.5265 2.465959 15.956417 -0.861272
2010-09-13 07:06:27 51°10.844 2°44.655 19.5265 2.464907 15.94971 -0.861272
2010-09-13 07:06:32 51°10.843 2°44.655 19.5284 2.466906 15.964124 -0.791624
2010-09-13 07:06:37 51°10.843 2°44.654 19.5336 2.465433 15.953437 -0.826448
2010-09-13 07:06:42 51°10.842 2°44.654 19.537 2.465433 15.953437 -0.826448
2010-09-13 07:06:47 51°10.841 2°44.654 19.5368 2.463013 15.936042 -0.896096
2010-09-13 07:06:52 51°10.841 2°44.654 19.5386 2.466696 15.96388 -0.861272
2010-09-13 07:06:56 51°10.84 2°44.654 19.5084 2.465749 15.957419 -0.861272
2010-09-13 07:07:02 51°10.839 2°44.654 19.5273 2.46417 15.946484 -0.861272
2010-09-13 07:07:07 51°10.839 2°44.654 19.5323 2.456384 15.88338 -0.826448
2010-09-13 07:07:12 51°10.838 2°44.653 19.5323 2.456384 15.88338 -0.826448
2010-09-13 07:07:16 51°10.838 2°44.653 19.5393 2.458173 15.896292 -0.861272
2010-09-13 07:07:22 51°10.837 2°44.653 19.5425 2.456805 15.886856 -0.826448
2010-09-13 07:07:27 51°10.836 2°44.653 19.5422 2.458278 15.898279 -0.896096
2010-09-13 07:07:32 51°10.835 2°44.653 19.5501 2.457331 15.89207 -0.861272
2010-09-13 07:07:36 51°10.835 2°44.652 19.5493 2.457857 15.895547 -0.861272
2010-09-13 07:07:42 51°10.834 2°44.652 19.5532 2.457857 15.895547 -0.861272
2010-09-13 07:07:47 51°10.833 2°44.652 19.5564 2.457015 15.890083 -0.826448
2010-09-13 07:07:52 51°10.833 2°44.652 19.5616 2.456384 15.886109 -0.896096
2010-09-13 07:07:57 51°10.832 2°44.652 19.5585 2.456489 15.886606 -0.861272
2010-09-13 07:08:02 51°10.831 2°44.652 19.5621 2.457646 15.896292 -0.861272
2010-09-13 07:08:07 51°10.83 2°44.651 19.5653 2.456594 15.888344 -0.861272
2010-09-13 07:08:12 51°10.83 2°44.651 19.5723 2.456594 15.888344 -0.861272
2010-09-13 07:08:17 51°10.829 2°44.651 19.5718 2.457646 15.896043 -0.861272
2010-09-13 07:08:22 51°10.829 2°44.651 19.572 2.457857 15.89803 -0.861272
2010-09-13 07:08:27 51°10.828 2°44.651 19.5734 2.457015 15.892814 -0.861272
2010-09-13 07:08:32 51°10.827 2°44.65 19.5759 2.456173 15.886108 -0.861272
2010-09-13 07:08:37 51°10.827 2°44.65 19.5778 2.455016 15.876672 -0.826448
2010-09-13 07:08:42 51°10.826 2°44.65 19.5802 2.455016 15.876672 -0.826448
2010-09-13 07:08:47 51°10.825 2°44.65 19.5856 2.456173 15.885364 -0.826448
2010-09-13 07:08:52 51°10.825 2°44.649 19.5891 2.456068 15.884619 -0.861272
2010-09-13 07:08:57 51°10.824 2°44.649 19.5873 2.456384 15.887598 -0.861272
2010-09-13 07:09:02 51°10.823 2°44.649 19.5939 2.457015 15.893311 -0.826448
2010-09-13 07:09:07 51°10.823 2°44.649 19.5909 2.4567 15.891572 -0.861272
2010-09-13 07:09:12 51°10.822 2°44.648 19.5963 2.4567 15.891572 -0.861272
2010-09-13 07:09:16 51°10.821 2°44.648 19.5954 2.455963 15.886355 -0.861272
2010-09-13 07:09:22 51°10.821 2°44.648 19.6015 2.455121 15.880146 -0.826448
2010-09-13 07:09:27 51°10.82 2°44.648 19.6033 2.455437 15.882381 -0.826448
2010-09-13 07:09:32 51°10.82 2°44.648 19.6111 2.455753 15.886106 -0.896096
2010-09-13 07:09:36 51°10.819 2°44.647 19.6138 2.457436 15.897782 -0.826448
2010-09-13 07:09:42 51°10.818 2°44.647 19.614 2.457436 15.897782 -0.826448
2010-09-13 07:09:47 51°10.818 2°44.647 19.6182 2.456068 15.888838 -0.861272
2010-09-13 07:09:52 51°10.817 2°44.647 19.6201 2.455226 15.882132 -0.896096
2010-09-13 07:09:57 51°10.817 2°44.647 19.6249 2.456594 15.892565 -0.896096
2010-09-13 07:10:02 51°10.817 2°44.647 19.627 2.455437 15.883622 -0.861272
2010-09-13 07:10:07 51°10.817 2°44.649 19.6277 2.4567 15.893558 -0.861272
2010-09-13 07:10:12 51°10.818 2°44.65 19.6341 2.4567 15.893558 -0.861272
2010-09-13 07:10:17 51°10.82 2°44.653 19.6262 2.455437 15.883622 -0.826448
2010-09-13 07:10:22 51°10.823 2°44.657 19.6281 2.454911 15.880641 -0.826448
2010-09-13 07:10:27 51°10.826 2°44.661 19.6321 2.454174 15.875176 -0.896096
2010-09-13 07:10:32 51°10.828 2°44.666 19.6259 2.453227 15.868222 -0.896096
2010-09-13 07:10:37 51°10.832 2°44.671 19.6343 2.454174 15.875424 -0.861272
2010-09-13 07:10:42 51°10.836 2°44.677 19.6385 2.454174 15.875424 -0.861272
2010-09-13 07:10:47 51°10.84 2°44.683 19.6377 2.452386 15.861765 -0.791624
2010-09-13 07:10:52 51°10.844 2°44.691 19.6424 2.452806 15.864498 -0.826448
2010-09-13 07:10:57 51°10.848 2°44.699 19.6461 2.45449 15.876419 -0.826448
2010-09-13 07:11:02 51°10.853 2°44.707 19.6498 2.451859 15.856305 -0.826448
2010-09-13 07:11:07 51°10.858 2°44.715 19.656 2.453227 15.866982 -0.861272
2010-09-13 07:11:12 51°10.863 2°44.724 19.657 2.453227 15.866982 -0.861272
2010-09-13 07:11:17 51°10.868 2°44.733 19.6552 2.453438 15.86872 -0.861272
2010-09-13 07:11:22 51°10.874 2°44.742 19.6534 2.451544 15.854566 -0.861272
2010-09-13 07:11:27 51°10.88 2°44.75 19.6669 2.451965 15.857546 -0.826448
2010-09-13 07:11:32 51°10.887 2°44.759 19.6646 2.452596 15.862512 -0.861272
2010-09-13 07:11:36 51°10.892 2°44.765 19.6723 2.452175 15.85854 -0.826448
2010-09-13 07:11:42 51°10.9 2°44.775 19.6744 2.452175 15.85854 -0.826448
2010-09-13 07:11:47 51°10.908 2°44.783 19.6769 2.451544 15.853328 -0.826448
2010-09-13 07:11:52 51°10.915 2°44.79 19.6759 2.450912 15.849106 -0.861272
2010-09-13 07:11:56 51°10.921 2°44.796 19.6787 2.451228 15.852083 -0.826448
2010-09-13 07:12:02 51°10.93 2°44.805 19.6807 2.451439 15.854069 -0.861272
2010-09-13 07:12:07 51°10.938 2°44.812 19.6837 2.451649 15.855559 -0.791624
2010-09-13 07:12:12 51°10.946 2°44.818 19.6892 2.451649 15.855559 -0.791624
2010-09-13 07:12:17 51°10.955 2°44.825 19.6882 2.451754 15.856799 -0.861272
2010-09-13 07:12:22 51°10.963 2°44.832 19.6873 2.451333 15.852828 -0.826448
2010-09-13 07:12:27 51°10.971 2°44.839 19.6887 2.451123 15.851338 -0.826448
2010-09-13 07:12:32 51°10.979 2°44.846 19.6963 2.451333 15.853324 -0.896096
2010-09-13 07:12:37 51°10.987 2°44.853 19.6946 2.44965 15.840662 -0.861272
2010-09-13 07:12:42 51°10.995 2°44.861 19.6931 2.44965 15.840662 -0.861272
2010-09-13 07:12:47 51°11.003 2°44.869 19.6948 2.451649 15.854816 -0.826448
2010-09-13 07:12:52 51°11.012 2°44.877 19.7018 2.450071 15.843146 -0.826448
2010-09-13 07:12:57 51°11.019 2°44.885 19.6862 2.449124 15.835206 -0.826448
2010-09-13 07:13:02 51°11.027 2°44.894 19.6627 2.448808 15.832971 -0.861272
2010-09-13 07:13:07 51°11.035 2°44.905 19.655 2.447651 15.822307 -0.826448
2010-09-13 07:13:12 51°11.041 2°44.915 19.6775 2.447651 15.822307 -0.826448
2010-09-13 07:13:17 51°11.048 2°44.926 19.7025 2.449755 15.838932 -0.861272
2010-09-13 07:13:22 51°11.054 2°44.937 19.7047 2.450176 15.844386 -0.826448
2010-09-13 07:13:27 51°11.06 2°44.948 19.717 2.452175 15.862506 -0.826448
2010-09-13 07:13:32 51°11.067 2°44.959 19.7197 2.451123 15.856293 -0.826448
2010-09-13 07:13:36 51°11.072 2°44.968 19.7233 2.450702 15.852817 -0.826448
2010-09-13 07:13:42 51°11.08 2°44.981 19.7219 2.450702 15.852817 -0.826448
2010-09-13 07:13:47 51°11.086 2°44.992 19.7212 2.451649 15.860267 -0.826448
2010-09-13 07:13:52 51°11.093 2°45.003 19.725 2.45186 15.860766 -0.826448
2010-09-13 07:13:56 51°11.099 2°45.012 19.7165 2.45207 15.861265 -0.826448
2010-09-13 07:14:02 51°11.107 2°45.025 19.7104 2.450386 15.847114 -0.861272
2010-09-13 07:14:07 51°11.113 2°45.036 19.7044 2.450386 15.846371 -0.861272
2010-09-13 07:14:12 51°11.119 2°45.047 19.7077 2.450386 15.846371 -0.861272
2010-09-13 07:14:16 51°11.124 2°45.057 19.7074 2.44986 15.841657 -0.861272
2010-09-13 07:14:22 51°11.131 2°45.072 19.7076 2.449439 15.839172 -0.826448
2010-09-13 07:14:27 51°11.136 2°45.085 19.6963 2.448598 15.832719 -0.826448
2010-09-13 07:14:32 51°11.14 2°45.098 19.6472 2.448282 15.831473 -0.861272
2010-09-13 07:14:37 51°11.144 2°45.112 19.6245 2.448492 15.832963 -0.861272
2010-09-13 07:14:42 51°11.147 2°45.127 19.6257 2.448492 15.832963 -0.861272
2010-09-13 07:14:47 51°11.149 2°45.141 19.6284 2.450071 15.844384 -0.826448
2010-09-13 07:14:52 51°11.149 2°45.155 19.6242 2.44965 15.841899 -0.861272
2010-09-13 07:14:57 51°11.149 2°45.169 19.6264 2.448913 15.836437 -0.826448
2010-09-13 07:15:02 51°11.147 2°45.182 19.6339 2.448703 15.835195 -0.861272
2010-09-13 07:15:07 51°11.145 2°45.194 19.6458 2.449755 15.844625 -0.826448
2010-09-13 07:15:12 51°11.142 2°45.205 19.6551 2.449755 15.844625 -0.826448
2010-09-13 07:15:17 51°11.137 2°45.215 19.6652 2.452596 15.868215 -0.826448
2010-09-13 07:15:22 51°11.132 2°45.224 19.663 2.450597 15.854302 -0.826448
2010-09-13 07:15:27 51°11.127 2°45.231 19.6754 2.45207 15.866472 -0.826448
2010-09-13 07:15:32 51°11.121 2°45.237 19.6798 2.453333 15.876162 -0.791624
2010-09-13 07:15:37 51°11.115 2°45.242 19.6845 2.452701 15.872434 -0.861272
2010-09-13 07:15:42 51°11.108 2°45.245 19.6894 2.452701 15.872434 -0.861272
2010-09-13 07:15:47 51°11.102 2°45.248 19.6939 2.453754 15.880882 -0.861272
2010-09-13 07:15:52 51°11.096 2°45.249 19.698 2.453648 15.879888 -0.826448
2010-09-13 07:15:56 51°11.091 2°45.25 19.7027 2.454385 15.884859 -0.861272
2010-09-13 07:16:02 51°11.084 2°45.249 19.7054 2.456279 15.89828 -0.826448
2010-09-13 07:16:07 51°11.078 2°45.248 19.7106 2.458594 15.916925 -0.861272
2010-09-13 07:16:12 51°11.072 2°45.246 19.7192 2.458594 15.916925 -0.861272
2010-09-13 07:16:16 51°11.068 2°45.245 19.7311 2.457121 15.90524 -0.826448
2010-09-13 07:16:22 51°11.062 2°45.242 19.7333 2.460172 15.930106 -0.826448
2010-09-13 07:16:27 51°11.057 2°45.239 19.7444 2.46396 15.96071 -0.826448
2010-09-13 07:16:32 51°11.052 2°45.237 19.7912 2.470168 16.007755 -0.826448
2010-09-13 07:16:36 51°11.047 2°45.234 19.7992 2.470274 16.009253 -0.861272
2010-09-13 07:16:42 51°11.04 2°45.229 19.7911 2.470274 16.009253 -0.861272
2010-09-13 07:16:47 51°11.033 2°45.224 19.7662 2.468485 15.996309 -0.861272
2010-09-13 07:16:52 51°11.027 2°45.218 19.7764 2.460383 15.935587 -0.861272
2010-09-13 07:16:57 51°11.02 2°45.211 19.7798 2.463118 15.953741 -0.896096
2010-09-13 07:17:02 51°11.014 2°45.204 19.7835 2.461961 15.944784 -0.861272
2010-09-13 07:17:07 51°11.008 2°45.196 19.8083 2.465118 15.969919 -0.861272
2010-09-13 07:17:12 51°11.003 2°45.188 19.8104 2.465118 15.969919 -0.861272
2010-09-13 07:17:17 51°10.997 2°45.18 19.8177 2.468064 15.992071 -0.896096
2010-09-13 07:17:22 51°10.992 2°45.172 19.811 2.471431 16.015211 -0.861272
2010-09-13 07:17:27 51°10.987 2°45.165 19.8226 2.465854 15.974894 -0.826448
2010-09-13 07:17:32 51°10.982 2°45.157 19.8259 2.462592 15.951257 -0.826448
2010-09-13 07:17:37 51°10.978 2°45.149 19.8388 2.466591 15.981119 -0.861272
2010-09-13 07:17:42 51°10.974 2°45.141 19.835 2.466591 15.981119 -0.861272
2010-09-13 07:17:47 51°10.969 2°45.134 19.8268 2.467327 15.987846 -0.826448
2010-09-13 07:17:52 51°10.965 2°45.126 19.8285 2.468801 15.998799 -0.861272
2010-09-13 07:17:56 51°10.962 2°45.121 19.8472 2.462592 15.953504 -0.861272
2010-09-13 07:18:02 51°10.957 2°45.112 19.843 2.472378 16.024188 -0.861272
2010-09-13 07:18:07 51°10.954 2°45.105 19.868 2.469221 16.001285 -0.826448
2010-09-13 07:18:12 51°10.95 2°45.098 19.8671 2.469221 16.001285 -0.826448
2010-09-13 07:18:16 51°10.947 2°45.093 19.8693 2.46396 15.96071 -0.861272
2010-09-13 07:18:22 51°10.943 2°45.085 19.8715 2.465644 15.972651 -0.826448
2010-09-13 07:18:27 51°10.94 2°45.078 19.8635 2.465854 15.974644 -0.861272
2010-09-13 07:18:32 51°10.937 2°45.072 19.8822 2.465223 15.971165 -0.826448
2010-09-13 07:18:36 51°10.934 2°45.067 19.8782 2.465854 15.976394 -0.861272
2010-09-13 07:18:42 51°10.931 2°45.06 19.8819 2.465854 15.976394 -0.861272
2010-09-13 07:18:47 51°10.928 2°45.053 19.8866 2.467538 15.988338 -0.826448
2010-09-13 07:18:52 51°10.925 2°45.047 19.8969 2.463013 15.957489 -0.826448
2010-09-13 07:18:57 51°10.922 2°45.041 19.9021 2.465539 15.976405 -0.861272
2010-09-13 07:19:02 51°10.92 2°45.036 19.8958 2.466696 15.984367 -0.826448
2010-09-13 07:19:07 51°10.917 2°45.03 19.8932 2.469116 16.002542 -0.826448
2010-09-13 07:19:12 51°10.914 2°45.025 19.9041 2.469116 16.002542 -0.826448
2010-09-13 07:19:16 51°10.912 2°45.02 19.9135 2.470484 16.011749 -0.896096
2010-09-13 07:19:22 51°10.909 2°45.013 19.9204 2.462066 15.950022 -0.826448
2010-09-13 07:19:27 51°10.907 2°45.007 19.9154 2.466486 15.982373 -0.791624
2010-09-13 07:19:32 51°10.905 2°45.001 19.9229 2.46396 15.963957 -0.861272
2010-09-13 07:19:37 51°10.902 2°44.996 19.9141 2.466696 15.983867 -0.826448
2010-09-13 07:19:42 51°10.9 2°44.99 19.9309 2.466696 15.983867 -0.826448
2010-09-13 07:19:47 51°10.898 2°44.984 19.9303 2.464697 15.967683 -0.826448
2010-09-13 07:19:52 51°10.896 2°44.979 19.9378 2.467959 15.992325 -0.861272
2010-09-13 07:19:57 51°10.893 2°44.973 19.949 2.465539 15.975654 -0.861272
2010-09-13 07:20:02 51°10.891 2°44.967 19.9506 2.471747 16.019708 -0.826448